<?xml version="1.0" encoding="UTF-8" standalone="no" ?>
<gpx xmlns="http://www.topografix.com/GPX/1/1" xmlns:xsi="http://www.w3.org/2001/XMLSchema-instance" xsi:schemaLocation="http://www.topografix.com/GPX/1/1 http://www.topografix.com/GPX/1/1/gpx.xsd" version="1.1" creator="VisuGPX - https://www.visugpx.com">
  <metadata>
    <name>Etang des Noues</name>
    <desc><![CDATA[Petite Boucle découverte ! circuit à améliorer.]]></desc>
  </metadata>
  <trk>
    <name><![CDATA[Move]]></name>
    <trkseg>
      <trkpt lat="47.06712" lon="-0.81327">
        <ele>136</ele>
        <time>2016-09-27T07:34:55.644Z</time>
      </trkpt>
      <trkpt lat="47.06713" lon="-0.81323">
        <ele>136</ele>
        <time>2016-09-27T07:34:57.644Z</time>
      </trkpt>
      <trkpt lat="47.06715" lon="-0.81316">
        <ele>135</ele>
        <time>2016-09-27T07:35:00.644Z</time>
      </trkpt>
      <trkpt lat="47.06716" lon="-0.8131">
        <ele>135</ele>
        <time>2016-09-27T07:35:03.644Z</time>
      </trkpt>
      <trkpt lat="47.06717" lon="-0.81304">
        <ele>135</ele>
        <time>2016-09-27T07:35:06.644Z</time>
      </trkpt>
      <trkpt lat="47.06716" lon="-0.81298">
        <ele>135</ele>
        <time>2016-09-27T07:35:09.644Z</time>
      </trkpt>
      <trkpt lat="47.06715" lon="-0.81281">
        <ele>135</ele>
        <time>2016-09-27T07:35:18.644Z</time>
      </trkpt>
      <trkpt lat="47.06705" lon="-0.81269">
        <ele>135</ele>
        <time>2016-09-27T07:35:25.644Z</time>
      </trkpt>
      <trkpt lat="47.06702" lon="-0.81266">
        <ele>135</ele>
        <time>2016-09-27T07:35:27.644Z</time>
      </trkpt>
      <trkpt lat="47.06699" lon="-0.8126">
        <ele>135</ele>
        <time>2016-09-27T07:35:30.644Z</time>
      </trkpt>
      <trkpt lat="47.06697" lon="-0.81256">
        <ele>135</ele>
        <time>2016-09-27T07:35:33.644Z</time>
      </trkpt>
      <trkpt lat="47.06692" lon="-0.81251">
        <ele>135</ele>
        <time>2016-09-27T07:35:36.644Z</time>
      </trkpt>
      <trkpt lat="47.06681" lon="-0.81245">
        <ele>135</ele>
        <time>2016-09-27T07:35:42.644Z</time>
      </trkpt>
      <trkpt lat="47.06677" lon="-0.81242">
        <ele>135</ele>
        <time>2016-09-27T07:35:44.644Z</time>
      </trkpt>
      <trkpt lat="47.06672" lon="-0.81235">
        <ele>135</ele>
        <time>2016-09-27T07:35:49.644Z</time>
      </trkpt>
      <trkpt lat="47.06664" lon="-0.81224">
        <ele>135</ele>
        <time>2016-09-27T07:35:56.644Z</time>
      </trkpt>
      <trkpt lat="47.06655" lon="-0.81214">
        <ele>135</ele>
        <time>2016-09-27T07:36:09.644Z</time>
      </trkpt>
      <trkpt lat="47.06644" lon="-0.81213">
        <ele>135</ele>
        <time>2016-09-27T07:36:16.644Z</time>
      </trkpt>
      <trkpt lat="47.06633" lon="-0.81212">
        <ele>135</ele>
        <time>2016-09-27T07:36:22.644Z</time>
      </trkpt>
      <trkpt lat="47.06621" lon="-0.81212">
        <ele>135</ele>
        <time>2016-09-27T07:36:28.644Z</time>
      </trkpt>
      <trkpt lat="47.06609" lon="-0.81213">
        <ele>135</ele>
        <time>2016-09-27T07:36:36.644Z</time>
      </trkpt>
      <trkpt lat="47.06604" lon="-0.81213">
        <ele>135.72382055346</ele>
        <time>2016-09-27T07:36:39.644Z</time>
      </trkpt>
      <trkpt lat="47.06595" lon="-0.81215">
        <ele>137</ele>
        <time>2016-09-27T07:36:46.644Z</time>
      </trkpt>
      <trkpt lat="47.06588" lon="-0.81216">
        <ele>137</ele>
        <time>2016-09-27T07:36:51.644Z</time>
      </trkpt>
      <trkpt lat="47.06576" lon="-0.81215">
        <ele>137</ele>
        <time>2016-09-27T07:36:57.644Z</time>
      </trkpt>
      <trkpt lat="47.06565" lon="-0.81214">
        <ele>137</ele>
        <time>2016-09-27T07:37:03.644Z</time>
      </trkpt>
      <trkpt lat="47.06555" lon="-0.81213">
        <ele>137</ele>
        <time>2016-09-27T07:37:09.644Z</time>
      </trkpt>
      <trkpt lat="47.06549" lon="-0.81213">
        <ele>137</ele>
        <time>2016-09-27T07:37:13.644Z</time>
      </trkpt>
      <trkpt lat="47.06543" lon="-0.81214">
        <ele>137</ele>
        <time>2016-09-27T07:37:17.644Z</time>
      </trkpt>
      <trkpt lat="47.0654" lon="-0.81214">
        <ele>137</ele>
        <time>2016-09-27T07:37:19.644Z</time>
      </trkpt>
      <trkpt lat="47.06536" lon="-0.81216">
        <ele>137</ele>
        <time>2016-09-27T07:37:22.644Z</time>
      </trkpt>
      <trkpt lat="47.06532" lon="-0.81216">
        <ele>137</ele>
        <time>2016-09-27T07:37:26.644Z</time>
      </trkpt>
      <trkpt lat="47.06527" lon="-0.81217">
        <ele>137.41099686326</ele>
        <time>2016-09-27T07:37:29.644Z</time>
      </trkpt>
      <trkpt lat="47.06516" lon="-0.81218">
        <ele>138</ele>
        <time>2016-09-27T07:37:36.644Z</time>
      </trkpt>
      <trkpt lat="47.06511" lon="-0.81217">
        <ele>138</ele>
        <time>2016-09-27T07:37:38.644Z</time>
      </trkpt>
      <trkpt lat="47.06507" lon="-0.81217">
        <ele>138</ele>
        <time>2016-09-27T07:37:40.644Z</time>
      </trkpt>
      <trkpt lat="47.06503" lon="-0.81217">
        <ele>138</ele>
        <time>2016-09-27T07:37:42.644Z</time>
      </trkpt>
      <trkpt lat="47.06498" lon="-0.81216">
        <ele>138</ele>
        <time>2016-09-27T07:37:45.644Z</time>
      </trkpt>
      <trkpt lat="47.06494" lon="-0.81217">
        <ele>138</ele>
        <time>2016-09-27T07:37:48.644Z</time>
      </trkpt>
      <trkpt lat="47.06489" lon="-0.81216">
        <ele>138</ele>
        <time>2016-09-27T07:37:51.644Z</time>
      </trkpt>
      <trkpt lat="47.06485" lon="-0.81215">
        <ele>138</ele>
        <time>2016-09-27T07:37:54.644Z</time>
      </trkpt>
      <trkpt lat="47.06481" lon="-0.81215">
        <ele>138</ele>
        <time>2016-09-27T07:37:57.644Z</time>
      </trkpt>
      <trkpt lat="47.06476" lon="-0.81215">
        <ele>139</ele>
        <time>2016-09-27T07:38:00.644Z</time>
      </trkpt>
      <trkpt lat="47.06472" lon="-0.81215">
        <ele>139</ele>
        <time>2016-09-27T07:38:02.644Z</time>
      </trkpt>
      <trkpt lat="47.06468" lon="-0.81215">
        <ele>139</ele>
        <time>2016-09-27T07:38:05.644Z</time>
      </trkpt>
      <trkpt lat="47.06464" lon="-0.81215">
        <ele>139</ele>
        <time>2016-09-27T07:38:07.644Z</time>
      </trkpt>
      <trkpt lat="47.06459" lon="-0.81215">
        <ele>139</ele>
        <time>2016-09-27T07:38:09.644Z</time>
      </trkpt>
      <trkpt lat="47.06454" lon="-0.81216">
        <ele>139</ele>
        <time>2016-09-27T07:38:12.644Z</time>
      </trkpt>
      <trkpt lat="47.06449" lon="-0.81216">
        <ele>139</ele>
        <time>2016-09-27T07:38:15.644Z</time>
      </trkpt>
      <trkpt lat="47.06444" lon="-0.81215">
        <ele>139</ele>
        <time>2016-09-27T07:38:18.644Z</time>
      </trkpt>
      <trkpt lat="47.06439" lon="-0.81215">
        <ele>139</ele>
        <time>2016-09-27T07:38:21.644Z</time>
      </trkpt>
      <trkpt lat="47.06435" lon="-0.81214">
        <ele>139</ele>
        <time>2016-09-27T07:38:24.644Z</time>
      </trkpt>
      <trkpt lat="47.06431" lon="-0.81213">
        <ele>139</ele>
        <time>2016-09-27T07:38:27.644Z</time>
      </trkpt>
      <trkpt lat="47.0642" lon="-0.81213">
        <ele>140</ele>
        <time>2016-09-27T07:38:34.644Z</time>
      </trkpt>
      <trkpt lat="47.06409" lon="-0.81212">
        <ele>140</ele>
        <time>2016-09-27T07:38:41.644Z</time>
      </trkpt>
      <trkpt lat="47.06396" lon="-0.81212">
        <ele>140</ele>
        <time>2016-09-27T07:38:48.644Z</time>
      </trkpt>
      <trkpt lat="47.06392" lon="-0.81212">
        <ele>140</ele>
        <time>2016-09-27T07:38:51.644Z</time>
      </trkpt>
      <trkpt lat="47.0638" lon="-0.81215">
        <ele>140</ele>
        <time>2016-09-27T07:38:59.644Z</time>
      </trkpt>
      <trkpt lat="47.06369" lon="-0.81215">
        <ele>140</ele>
        <time>2016-09-27T07:39:05.644Z</time>
      </trkpt>
      <trkpt lat="47.06358" lon="-0.81217">
        <ele>142</ele>
        <time>2016-09-27T07:39:11.644Z</time>
      </trkpt>
      <trkpt lat="47.06351" lon="-0.81216">
        <ele>142</ele>
        <time>2016-09-27T07:39:15.644Z</time>
      </trkpt>
      <trkpt lat="47.06346" lon="-0.81217">
        <ele>142</ele>
        <time>2016-09-27T07:39:18.644Z</time>
      </trkpt>
      <trkpt lat="47.06343" lon="-0.81216">
        <ele>142</ele>
        <time>2016-09-27T07:39:20.644Z</time>
      </trkpt>
      <trkpt lat="47.06338" lon="-0.81217">
        <ele>142</ele>
        <time>2016-09-27T07:39:23.644Z</time>
      </trkpt>
      <trkpt lat="47.06334" lon="-0.81222">
        <ele>142</ele>
        <time>2016-09-27T07:39:26.644Z</time>
      </trkpt>
      <trkpt lat="47.0633" lon="-0.81225">
        <ele>142</ele>
        <time>2016-09-27T07:39:29.644Z</time>
      </trkpt>
      <trkpt lat="47.06327" lon="-0.8123">
        <ele>142</ele>
        <time>2016-09-27T07:39:31.644Z</time>
      </trkpt>
      <trkpt lat="47.06322" lon="-0.81238">
        <ele>142</ele>
        <time>2016-09-27T07:39:33.644Z</time>
      </trkpt>
      <trkpt lat="47.06318" lon="-0.81244">
        <ele>142</ele>
        <time>2016-09-27T07:39:35.644Z</time>
      </trkpt>
      <trkpt lat="47.06316" lon="-0.81249">
        <ele>142</ele>
        <time>2016-09-27T07:39:38.644Z</time>
      </trkpt>
      <trkpt lat="47.06314" lon="-0.81255">
        <ele>142</ele>
        <time>2016-09-27T07:39:41.644Z</time>
      </trkpt>
      <trkpt lat="47.06312" lon="-0.81262">
        <ele>142</ele>
        <time>2016-09-27T07:39:44.644Z</time>
      </trkpt>
      <trkpt lat="47.0631" lon="-0.81267">
        <ele>142</ele>
        <time>2016-09-27T07:39:47.644Z</time>
      </trkpt>
      <trkpt lat="47.06307" lon="-0.81273">
        <ele>142.32222222222</ele>
        <time>2016-09-27T07:39:50.644Z</time>
      </trkpt>
      <trkpt lat="47.06306" lon="-0.81281">
        <ele>143</ele>
        <time>2016-09-27T07:39:53.644Z</time>
      </trkpt>
      <trkpt lat="47.06304" lon="-0.81288">
        <ele>143</ele>
        <time>2016-09-27T07:39:56.644Z</time>
      </trkpt>
      <trkpt lat="47.06302" lon="-0.81294">
        <ele>143</ele>
        <time>2016-09-27T07:39:59.644Z</time>
      </trkpt>
      <trkpt lat="47.06299" lon="-0.813">
        <ele>143</ele>
        <time>2016-09-27T07:40:02.644Z</time>
      </trkpt>
      <trkpt lat="47.06298" lon="-0.81305">
        <ele>143</ele>
        <time>2016-09-27T07:40:04.644Z</time>
      </trkpt>
      <trkpt lat="47.06296" lon="-0.8131">
        <ele>143</ele>
        <time>2016-09-27T07:40:07.644Z</time>
      </trkpt>
      <trkpt lat="47.06294" lon="-0.81316">
        <ele>144</ele>
        <time>2016-09-27T07:40:11.644Z</time>
      </trkpt>
      <trkpt lat="47.06291" lon="-0.81323">
        <ele>144</ele>
        <time>2016-09-27T07:40:15.644Z</time>
      </trkpt>
      <trkpt lat="47.06289" lon="-0.8133">
        <ele>144</ele>
        <time>2016-09-27T07:40:18.644Z</time>
      </trkpt>
      <trkpt lat="47.06287" lon="-0.81337">
        <ele>144</ele>
        <time>2016-09-27T07:40:21.644Z</time>
      </trkpt>
      <trkpt lat="47.06285" lon="-0.81343">
        <ele>144</ele>
        <time>2016-09-27T07:40:23.644Z</time>
      </trkpt>
      <trkpt lat="47.06283" lon="-0.8135">
        <ele>144</ele>
        <time>2016-09-27T07:40:26.644Z</time>
      </trkpt>
      <trkpt lat="47.06281" lon="-0.81355">
        <ele>144</ele>
        <time>2016-09-27T07:40:29.644Z</time>
      </trkpt>
      <trkpt lat="47.06279" lon="-0.81359">
        <ele>144</ele>
        <time>2016-09-27T07:40:31.644Z</time>
      </trkpt>
      <trkpt lat="47.06277" lon="-0.81363">
        <ele>144</ele>
        <time>2016-09-27T07:40:33.644Z</time>
      </trkpt>
      <trkpt lat="47.06275" lon="-0.81369">
        <ele>144</ele>
        <time>2016-09-27T07:40:36.644Z</time>
      </trkpt>
      <trkpt lat="47.06272" lon="-0.81374">
        <ele>144</ele>
        <time>2016-09-27T07:40:38.644Z</time>
      </trkpt>
      <trkpt lat="47.06269" lon="-0.81379">
        <ele>145</ele>
        <time>2016-09-27T07:40:41.644Z</time>
      </trkpt>
      <trkpt lat="47.06267" lon="-0.81385">
        <ele>145</ele>
        <time>2016-09-27T07:40:44.644Z</time>
      </trkpt>
      <trkpt lat="47.06266" lon="-0.81391">
        <ele>145</ele>
        <time>2016-09-27T07:40:50.644Z</time>
      </trkpt>
      <trkpt lat="47.06264" lon="-0.81399">
        <ele>145</ele>
        <time>2016-09-27T07:40:53.644Z</time>
      </trkpt>
      <trkpt lat="47.06263" lon="-0.81404">
        <ele>145</ele>
        <time>2016-09-27T07:40:55.644Z</time>
      </trkpt>
      <trkpt lat="47.06261" lon="-0.81409">
        <ele>145</ele>
        <time>2016-09-27T07:40:57.644Z</time>
      </trkpt>
      <trkpt lat="47.06258" lon="-0.81413">
        <ele>145</ele>
        <time>2016-09-27T07:40:59.644Z</time>
      </trkpt>
      <trkpt lat="47.06255" lon="-0.81417">
        <ele>145</ele>
        <time>2016-09-27T07:41:01.644Z</time>
      </trkpt>
      <trkpt lat="47.06252" lon="-0.81423">
        <ele>145</ele>
        <time>2016-09-27T07:41:04.644Z</time>
      </trkpt>
      <trkpt lat="47.06248" lon="-0.81428">
        <ele>145</ele>
        <time>2016-09-27T07:41:07.644Z</time>
      </trkpt>
      <trkpt lat="47.06245" lon="-0.81434">
        <ele>145</ele>
        <time>2016-09-27T07:41:10.644Z</time>
      </trkpt>
      <trkpt lat="47.06243" lon="-0.81439">
        <ele>145</ele>
        <time>2016-09-27T07:41:12.644Z</time>
      </trkpt>
      <trkpt lat="47.06239" lon="-0.8145">
        <ele>145</ele>
        <time>2016-09-27T07:41:16.644Z</time>
      </trkpt>
      <trkpt lat="47.06236" lon="-0.81455">
        <ele>145.44615384615</ele>
        <time>2016-09-27T07:41:19.644Z</time>
      </trkpt>
      <trkpt lat="47.06229" lon="-0.81466">
        <ele>146</ele>
        <time>2016-09-27T07:41:25.644Z</time>
      </trkpt>
      <trkpt lat="47.06227" lon="-0.81471">
        <ele>146</ele>
        <time>2016-09-27T07:41:27.644Z</time>
      </trkpt>
      <trkpt lat="47.06219" lon="-0.81485">
        <ele>146</ele>
        <time>2016-09-27T07:41:35.644Z</time>
      </trkpt>
      <trkpt lat="47.06216" lon="-0.81489">
        <ele>146</ele>
        <time>2016-09-27T07:41:38.644Z</time>
      </trkpt>
      <trkpt lat="47.06213" lon="-0.81494">
        <ele>146</ele>
        <time>2016-09-27T07:41:41.644Z</time>
      </trkpt>
      <trkpt lat="47.06211" lon="-0.81501">
        <ele>146</ele>
        <time>2016-09-27T07:41:44.644Z</time>
      </trkpt>
      <trkpt lat="47.06208" lon="-0.81506">
        <ele>146</ele>
        <time>2016-09-27T07:41:47.644Z</time>
      </trkpt>
      <trkpt lat="47.06206" lon="-0.81511">
        <ele>146</ele>
        <time>2016-09-27T07:41:50.644Z</time>
      </trkpt>
      <trkpt lat="47.062" lon="-0.81521">
        <ele>146</ele>
        <time>2016-09-27T07:41:55.644Z</time>
      </trkpt>
      <trkpt lat="47.06195" lon="-0.81529">
        <ele>146</ele>
        <time>2016-09-27T07:42:00.644Z</time>
      </trkpt>
      <trkpt lat="47.06187" lon="-0.81542">
        <ele>146</ele>
        <time>2016-09-27T07:42:07.644Z</time>
      </trkpt>
      <trkpt lat="47.06179" lon="-0.81554">
        <ele>147</ele>
        <time>2016-09-27T07:42:15.644Z</time>
      </trkpt>
      <trkpt lat="47.06175" lon="-0.81565">
        <ele>147</ele>
        <time>2016-09-27T07:42:22.644Z</time>
      </trkpt>
      <trkpt lat="47.06172" lon="-0.81581">
        <ele>147</ele>
        <time>2016-09-27T07:42:30.644Z</time>
      </trkpt>
      <trkpt lat="47.06166" lon="-0.81598">
        <ele>147</ele>
        <time>2016-09-27T07:42:37.644Z</time>
      </trkpt>
      <trkpt lat="47.06161" lon="-0.81613">
        <ele>148</ele>
        <time>2016-09-27T07:42:44.644Z</time>
      </trkpt>
      <trkpt lat="47.06155" lon="-0.81628">
        <ele>148</ele>
        <time>2016-09-27T07:42:52.644Z</time>
      </trkpt>
      <trkpt lat="47.06148" lon="-0.8164">
        <ele>148</ele>
        <time>2016-09-27T07:42:58.644Z</time>
      </trkpt>
      <trkpt lat="47.06143" lon="-0.81655">
        <ele>148</ele>
        <time>2016-09-27T07:43:05.644Z</time>
      </trkpt>
      <trkpt lat="47.06139" lon="-0.8166">
        <ele>148</ele>
        <time>2016-09-27T07:43:08.644Z</time>
      </trkpt>
      <trkpt lat="47.06137" lon="-0.81667">
        <ele>149</ele>
        <time>2016-09-27T07:43:11.644Z</time>
      </trkpt>
      <trkpt lat="47.06135" lon="-0.81672">
        <ele>149</ele>
        <time>2016-09-27T07:43:13.644Z</time>
      </trkpt>
      <trkpt lat="47.06132" lon="-0.81678">
        <ele>149</ele>
        <time>2016-09-27T07:43:16.644Z</time>
      </trkpt>
      <trkpt lat="47.06129" lon="-0.81684">
        <ele>149</ele>
        <time>2016-09-27T07:43:19.644Z</time>
      </trkpt>
      <trkpt lat="47.06124" lon="-0.81701">
        <ele>149</ele>
        <time>2016-09-27T07:43:27.644Z</time>
      </trkpt>
      <trkpt lat="47.06122" lon="-0.81706">
        <ele>149</ele>
        <time>2016-09-27T07:43:29.644Z</time>
      </trkpt>
      <trkpt lat="47.0612" lon="-0.81712">
        <ele>149</ele>
        <time>2016-09-27T07:43:31.644Z</time>
      </trkpt>
      <trkpt lat="47.06117" lon="-0.81717">
        <ele>149</ele>
        <time>2016-09-27T07:43:34.644Z</time>
      </trkpt>
      <trkpt lat="47.0611" lon="-0.81731">
        <ele>149</ele>
        <time>2016-09-27T07:43:42.644Z</time>
      </trkpt>
      <trkpt lat="47.06107" lon="-0.81735">
        <ele>149</ele>
        <time>2016-09-27T07:43:44.644Z</time>
      </trkpt>
      <trkpt lat="47.06101" lon="-0.81744">
        <ele>149</ele>
        <time>2016-09-27T07:43:49.644Z</time>
      </trkpt>
      <trkpt lat="47.06097" lon="-0.81753">
        <ele>149</ele>
        <time>2016-09-27T07:43:53.644Z</time>
      </trkpt>
      <trkpt lat="47.06094" lon="-0.81756">
        <ele>149</ele>
        <time>2016-09-27T07:43:55.644Z</time>
      </trkpt>
      <trkpt lat="47.06092" lon="-0.81762">
        <ele>149</ele>
        <time>2016-09-27T07:43:57.644Z</time>
      </trkpt>
      <trkpt lat="47.06089" lon="-0.81768">
        <ele>150</ele>
        <time>2016-09-27T07:44:00.644Z</time>
      </trkpt>
      <trkpt lat="47.06086" lon="-0.81774">
        <ele>150</ele>
        <time>2016-09-27T07:44:03.644Z</time>
      </trkpt>
      <trkpt lat="47.06084" lon="-0.8178">
        <ele>150</ele>
        <time>2016-09-27T07:44:06.644Z</time>
      </trkpt>
      <trkpt lat="47.0608" lon="-0.81786">
        <ele>150.37675443166</ele>
        <time>2016-09-27T07:44:09.644Z</time>
      </trkpt>
      <trkpt lat="47.06077" lon="-0.81791">
        <ele>151</ele>
        <time>2016-09-27T07:44:12.644Z</time>
      </trkpt>
      <trkpt lat="47.06068" lon="-0.81802">
        <ele>151</ele>
        <time>2016-09-27T07:44:20.644Z</time>
      </trkpt>
      <trkpt lat="47.0606" lon="-0.81815">
        <ele>151</ele>
        <time>2016-09-27T07:44:27.644Z</time>
      </trkpt>
      <trkpt lat="47.06053" lon="-0.81828">
        <ele>151</ele>
        <time>2016-09-27T07:44:36.644Z</time>
      </trkpt>
      <trkpt lat="47.06045" lon="-0.81842">
        <ele>152</ele>
        <time>2016-09-27T07:44:43.644Z</time>
      </trkpt>
      <trkpt lat="47.06037" lon="-0.81854">
        <ele>152</ele>
        <time>2016-09-27T07:44:49.644Z</time>
      </trkpt>
      <trkpt lat="47.06028" lon="-0.81867">
        <ele>152</ele>
        <time>2016-09-27T07:44:56.644Z</time>
      </trkpt>
      <trkpt lat="47.06019" lon="-0.81878">
        <ele>152</ele>
        <time>2016-09-27T07:45:03.644Z</time>
      </trkpt>
      <trkpt lat="47.0601" lon="-0.81889">
        <ele>152</ele>
        <time>2016-09-27T07:45:11.644Z</time>
      </trkpt>
      <trkpt lat="47.06007" lon="-0.81893">
        <ele>152</ele>
        <time>2016-09-27T07:45:14.644Z</time>
      </trkpt>
      <trkpt lat="47.06001" lon="-0.819">
        <ele>152.41099686326</ele>
        <time>2016-09-27T07:45:19.644Z</time>
      </trkpt>
      <trkpt lat="47.05998" lon="-0.81904">
        <ele>153</ele>
        <time>2016-09-27T07:45:22.644Z</time>
      </trkpt>
      <trkpt lat="47.05995" lon="-0.8191">
        <ele>153</ele>
        <time>2016-09-27T07:45:25.644Z</time>
      </trkpt>
      <trkpt lat="47.05992" lon="-0.81916">
        <ele>153</ele>
        <time>2016-09-27T07:45:28.644Z</time>
      </trkpt>
      <trkpt lat="47.05988" lon="-0.81923">
        <ele>153</ele>
        <time>2016-09-27T07:45:32.644Z</time>
      </trkpt>
      <trkpt lat="47.05984" lon="-0.81928">
        <ele>153</ele>
        <time>2016-09-27T07:45:35.644Z</time>
      </trkpt>
      <trkpt lat="47.0598" lon="-0.81932">
        <ele>153</ele>
        <time>2016-09-27T07:45:38.644Z</time>
      </trkpt>
      <trkpt lat="47.05977" lon="-0.81935">
        <ele>154</ele>
        <time>2016-09-27T07:45:40.644Z</time>
      </trkpt>
      <trkpt lat="47.05974" lon="-0.81938">
        <ele>154</ele>
        <time>2016-09-27T07:45:42.644Z</time>
      </trkpt>
      <trkpt lat="47.05971" lon="-0.81941">
        <ele>154</ele>
        <time>2016-09-27T07:45:44.644Z</time>
      </trkpt>
      <trkpt lat="47.05967" lon="-0.81944">
        <ele>154</ele>
        <time>2016-09-27T07:45:46.644Z</time>
      </trkpt>
      <trkpt lat="47.05964" lon="-0.81947">
        <ele>154</ele>
        <time>2016-09-27T07:45:48.644Z</time>
      </trkpt>
      <trkpt lat="47.05961" lon="-0.81952">
        <ele>155</ele>
        <time>2016-09-27T07:45:51.644Z</time>
      </trkpt>
      <trkpt lat="47.05959" lon="-0.81958">
        <ele>155</ele>
        <time>2016-09-27T07:45:54.644Z</time>
      </trkpt>
      <trkpt lat="47.05956" lon="-0.81963">
        <ele>155</ele>
        <time>2016-09-27T07:45:57.644Z</time>
      </trkpt>
      <trkpt lat="47.05953" lon="-0.81968">
        <ele>156</ele>
        <time>2016-09-27T07:46:00.644Z</time>
      </trkpt>
      <trkpt lat="47.0595" lon="-0.81973">
        <ele>156</ele>
        <time>2016-09-27T07:46:03.644Z</time>
      </trkpt>
      <trkpt lat="47.05948" lon="-0.81978">
        <ele>156</ele>
        <time>2016-09-27T07:46:06.644Z</time>
      </trkpt>
      <trkpt lat="47.05945" lon="-0.81983">
        <ele>156.41428571429</ele>
        <time>2016-09-27T07:46:09.644Z</time>
      </trkpt>
      <trkpt lat="47.05942" lon="-0.81988">
        <ele>157</ele>
        <time>2016-09-27T07:46:13.644Z</time>
      </trkpt>
      <trkpt lat="47.0594" lon="-0.81998">
        <ele>157</ele>
        <time>2016-09-27T07:46:18.644Z</time>
      </trkpt>
      <trkpt lat="47.05939" lon="-0.82004">
        <ele>158</ele>
        <time>2016-09-27T07:46:21.644Z</time>
      </trkpt>
      <trkpt lat="47.05938" lon="-0.8201">
        <ele>158</ele>
        <time>2016-09-27T07:46:24.644Z</time>
      </trkpt>
      <trkpt lat="47.05937" lon="-0.82017">
        <ele>158</ele>
        <time>2016-09-27T07:46:28.644Z</time>
      </trkpt>
      <trkpt lat="47.05936" lon="-0.82023">
        <ele>158</ele>
        <time>2016-09-27T07:46:31.644Z</time>
      </trkpt>
      <trkpt lat="47.05935" lon="-0.82028">
        <ele>158</ele>
        <time>2016-09-27T07:46:33.644Z</time>
      </trkpt>
      <trkpt lat="47.05934" lon="-0.82035">
        <ele>158</ele>
        <time>2016-09-27T07:46:36.644Z</time>
      </trkpt>
      <trkpt lat="47.05933" lon="-0.82041">
        <ele>158</ele>
        <time>2016-09-27T07:46:38.644Z</time>
      </trkpt>
      <trkpt lat="47.0593" lon="-0.82047">
        <ele>158</ele>
        <time>2016-09-27T07:46:41.644Z</time>
      </trkpt>
      <trkpt lat="47.05929" lon="-0.82053">
        <ele>158</ele>
        <time>2016-09-27T07:46:44.644Z</time>
      </trkpt>
      <trkpt lat="47.05926" lon="-0.8207">
        <ele>158</ele>
        <time>2016-09-27T07:46:51.644Z</time>
      </trkpt>
      <trkpt lat="47.05924" lon="-0.82086">
        <ele>158</ele>
        <time>2016-09-27T07:46:57.644Z</time>
      </trkpt>
      <trkpt lat="47.05921" lon="-0.82103">
        <ele>159</ele>
        <time>2016-09-27T07:47:04.644Z</time>
      </trkpt>
      <trkpt lat="47.05917" lon="-0.82118">
        <ele>159</ele>
        <time>2016-09-27T07:47:11.644Z</time>
      </trkpt>
      <trkpt lat="47.05915" lon="-0.82123">
        <ele>159</ele>
        <time>2016-09-27T07:47:14.644Z</time>
      </trkpt>
      <trkpt lat="47.05913" lon="-0.82139">
        <ele>159</ele>
        <time>2016-09-27T07:47:22.644Z</time>
      </trkpt>
      <trkpt lat="47.05907" lon="-0.82154">
        <ele>159</ele>
        <time>2016-09-27T07:47:28.644Z</time>
      </trkpt>
      <trkpt lat="47.05903" lon="-0.82169">
        <ele>160</ele>
        <time>2016-09-27T07:47:35.644Z</time>
      </trkpt>
      <trkpt lat="47.059" lon="-0.82186">
        <ele>160</ele>
        <time>2016-09-27T07:47:41.644Z</time>
      </trkpt>
      <trkpt lat="47.05899" lon="-0.82192">
        <ele>160</ele>
        <time>2016-09-27T07:47:43.644Z</time>
      </trkpt>
      <trkpt lat="47.05897" lon="-0.82199">
        <ele>160</ele>
        <time>2016-09-27T07:47:46.644Z</time>
      </trkpt>
      <trkpt lat="47.05895" lon="-0.82204">
        <ele>160</ele>
        <time>2016-09-27T07:47:48.644Z</time>
      </trkpt>
      <trkpt lat="47.05893" lon="-0.82211">
        <ele>160</ele>
        <time>2016-09-27T07:47:51.644Z</time>
      </trkpt>
      <trkpt lat="47.05893" lon="-0.82217">
        <ele>160</ele>
        <time>2016-09-27T07:47:54.644Z</time>
      </trkpt>
      <trkpt lat="47.05891" lon="-0.82233">
        <ele>161</ele>
        <time>2016-09-27T07:48:02.644Z</time>
      </trkpt>
      <trkpt lat="47.05887" lon="-0.82242">
        <ele>161</ele>
        <time>2016-09-27T07:48:06.644Z</time>
      </trkpt>
      <trkpt lat="47.05884" lon="-0.82249">
        <ele>161</ele>
        <time>2016-09-27T07:48:09.644Z</time>
      </trkpt>
      <trkpt lat="47.05883" lon="-0.82255">
        <ele>161</ele>
        <time>2016-09-27T07:48:12.644Z</time>
      </trkpt>
      <trkpt lat="47.0588" lon="-0.82261">
        <ele>161</ele>
        <time>2016-09-27T07:48:15.644Z</time>
      </trkpt>
      <trkpt lat="47.05878" lon="-0.82267">
        <ele>161</ele>
        <time>2016-09-27T07:48:18.644Z</time>
      </trkpt>
      <trkpt lat="47.05875" lon="-0.82271">
        <ele>161</ele>
        <time>2016-09-27T07:48:20.644Z</time>
      </trkpt>
      <trkpt lat="47.05871" lon="-0.82288">
        <ele>161</ele>
        <time>2016-09-27T07:48:26.644Z</time>
      </trkpt>
      <trkpt lat="47.05868" lon="-0.82304">
        <ele>161</ele>
        <time>2016-09-27T07:48:33.644Z</time>
      </trkpt>
      <trkpt lat="47.05864" lon="-0.82314">
        <ele>161</ele>
        <time>2016-09-27T07:48:38.644Z</time>
      </trkpt>
      <trkpt lat="47.0586" lon="-0.8233">
        <ele>161</ele>
        <time>2016-09-27T07:48:46.644Z</time>
      </trkpt>
      <trkpt lat="47.05858" lon="-0.82338">
        <ele>161</ele>
        <time>2016-09-27T07:48:50.644Z</time>
      </trkpt>
      <trkpt lat="47.05856" lon="-0.82346">
        <ele>161</ele>
        <time>2016-09-27T07:48:53.644Z</time>
      </trkpt>
      <trkpt lat="47.05854" lon="-0.82364">
        <ele>161</ele>
        <time>2016-09-27T07:49:00.644Z</time>
      </trkpt>
      <trkpt lat="47.05852" lon="-0.8237">
        <ele>161</ele>
        <time>2016-09-27T07:49:03.644Z</time>
      </trkpt>
      <trkpt lat="47.05851" lon="-0.82376">
        <ele>161</ele>
        <time>2016-09-27T07:49:06.644Z</time>
      </trkpt>
      <trkpt lat="47.05848" lon="-0.82382">
        <ele>161</ele>
        <time>2016-09-27T07:49:09.644Z</time>
      </trkpt>
      <trkpt lat="47.05845" lon="-0.82392">
        <ele>161</ele>
        <time>2016-09-27T07:49:13.644Z</time>
      </trkpt>
      <trkpt lat="47.05845" lon="-0.82399">
        <ele>161</ele>
        <time>2016-09-27T07:49:16.644Z</time>
      </trkpt>
      <trkpt lat="47.0584" lon="-0.82415">
        <ele>161</ele>
        <time>2016-09-27T07:49:23.644Z</time>
      </trkpt>
      <trkpt lat="47.05838" lon="-0.82421">
        <ele>161</ele>
        <time>2016-09-27T07:49:26.644Z</time>
      </trkpt>
      <trkpt lat="47.05836" lon="-0.82437">
        <ele>161</ele>
        <time>2016-09-27T07:49:33.644Z</time>
      </trkpt>
      <trkpt lat="47.05834" lon="-0.82445">
        <ele>161</ele>
        <time>2016-09-27T07:49:37.644Z</time>
      </trkpt>
      <trkpt lat="47.05832" lon="-0.8245">
        <ele>160</ele>
        <time>2016-09-27T07:49:41.644Z</time>
      </trkpt>
      <trkpt lat="47.05828" lon="-0.82459">
        <ele>160</ele>
        <time>2016-09-27T07:49:46.644Z</time>
      </trkpt>
      <trkpt lat="47.05824" lon="-0.82475">
        <ele>160</ele>
        <time>2016-09-27T07:49:52.644Z</time>
      </trkpt>
      <trkpt lat="47.05822" lon="-0.82486">
        <ele>160</ele>
        <time>2016-09-27T07:49:57.644Z</time>
      </trkpt>
      <trkpt lat="47.05821" lon="-0.82491">
        <ele>159</ele>
        <time>2016-09-27T07:50:00.644Z</time>
      </trkpt>
      <trkpt lat="47.0582" lon="-0.82497">
        <ele>159</ele>
        <time>2016-09-27T07:50:03.644Z</time>
      </trkpt>
      <trkpt lat="47.05816" lon="-0.82512">
        <ele>159</ele>
        <time>2016-09-27T07:50:10.644Z</time>
      </trkpt>
      <trkpt lat="47.05813" lon="-0.82528">
        <ele>159</ele>
        <time>2016-09-27T07:50:16.644Z</time>
      </trkpt>
      <trkpt lat="47.05809" lon="-0.82543">
        <ele>159</ele>
        <time>2016-09-27T07:50:22.644Z</time>
      </trkpt>
      <trkpt lat="47.05804" lon="-0.82553">
        <ele>159</ele>
        <time>2016-09-27T07:50:27.644Z</time>
      </trkpt>
      <trkpt lat="47.05802" lon="-0.82559">
        <ele>159</ele>
        <time>2016-09-27T07:50:30.644Z</time>
      </trkpt>
      <trkpt lat="47.05802" lon="-0.82564">
        <ele>159</ele>
        <time>2016-09-27T07:50:33.644Z</time>
      </trkpt>
      <trkpt lat="47.058" lon="-0.82572">
        <ele>159</ele>
        <time>2016-09-27T07:50:37.644Z</time>
      </trkpt>
      <trkpt lat="47.05798" lon="-0.82585">
        <ele>159</ele>
        <time>2016-09-27T07:50:42.644Z</time>
      </trkpt>
      <trkpt lat="47.05798" lon="-0.82591">
        <ele>159</ele>
        <time>2016-09-27T07:50:44.644Z</time>
      </trkpt>
      <trkpt lat="47.05792" lon="-0.82605">
        <ele>158</ele>
        <time>2016-09-27T07:50:51.644Z</time>
      </trkpt>
      <trkpt lat="47.05787" lon="-0.82621">
        <ele>158</ele>
        <time>2016-09-27T07:50:59.644Z</time>
      </trkpt>
      <trkpt lat="47.05782" lon="-0.82636">
        <ele>157</ele>
        <time>2016-09-27T07:51:06.644Z</time>
      </trkpt>
      <trkpt lat="47.05781" lon="-0.82644">
        <ele>157</ele>
        <time>2016-09-27T07:51:09.644Z</time>
      </trkpt>
      <trkpt lat="47.05781" lon="-0.82651">
        <ele>157</ele>
        <time>2016-09-27T07:51:12.644Z</time>
      </trkpt>
      <trkpt lat="47.0578" lon="-0.82659">
        <ele>157</ele>
        <time>2016-09-27T07:51:15.644Z</time>
      </trkpt>
      <trkpt lat="47.05779" lon="-0.82664">
        <ele>157</ele>
        <time>2016-09-27T07:51:17.644Z</time>
      </trkpt>
      <trkpt lat="47.05776" lon="-0.82681">
        <ele>156</ele>
        <time>2016-09-27T07:51:24.644Z</time>
      </trkpt>
      <trkpt lat="47.05774" lon="-0.8269">
        <ele>156</ele>
        <time>2016-09-27T07:51:28.644Z</time>
      </trkpt>
      <trkpt lat="47.05766" lon="-0.82704">
        <ele>156</ele>
        <time>2016-09-27T07:51:34.644Z</time>
      </trkpt>
      <trkpt lat="47.05761" lon="-0.82709">
        <ele>156</ele>
        <time>2016-09-27T07:51:37.644Z</time>
      </trkpt>
      <trkpt lat="47.05757" lon="-0.82712">
        <ele>156</ele>
        <time>2016-09-27T07:51:39.644Z</time>
      </trkpt>
      <trkpt lat="47.05753" lon="-0.82716">
        <ele>156</ele>
        <time>2016-09-27T07:51:42.644Z</time>
      </trkpt>
      <trkpt lat="47.05748" lon="-0.82716">
        <ele>156</ele>
        <time>2016-09-27T07:51:45.644Z</time>
      </trkpt>
      <trkpt lat="47.05744" lon="-0.82717">
        <ele>156</ele>
        <time>2016-09-27T07:51:49.644Z</time>
      </trkpt>
      <trkpt lat="47.05741" lon="-0.82719">
        <ele>155</ele>
        <time>2016-09-27T07:51:52.644Z</time>
      </trkpt>
      <trkpt lat="47.05736" lon="-0.82721">
        <ele>155</ele>
        <time>2016-09-27T07:51:55.644Z</time>
      </trkpt>
      <trkpt lat="47.05729" lon="-0.82729">
        <ele>155</ele>
        <time>2016-09-27T07:52:00.644Z</time>
      </trkpt>
      <trkpt lat="47.05725" lon="-0.82731">
        <ele>155</ele>
        <time>2016-09-27T07:52:02.644Z</time>
      </trkpt>
      <trkpt lat="47.05715" lon="-0.8274">
        <ele>155</ele>
        <time>2016-09-27T07:52:09.644Z</time>
      </trkpt>
      <trkpt lat="47.0571" lon="-0.82743">
        <ele>155</ele>
        <time>2016-09-27T07:52:12.644Z</time>
      </trkpt>
      <trkpt lat="47.05706" lon="-0.82744">
        <ele>155</ele>
        <time>2016-09-27T07:52:16.644Z</time>
      </trkpt>
      <trkpt lat="47.05701" lon="-0.82743">
        <ele>155</ele>
        <time>2016-09-27T07:52:20.644Z</time>
      </trkpt>
      <trkpt lat="47.05694" lon="-0.82744">
        <ele>155</ele>
        <time>2016-09-27T07:52:24.644Z</time>
      </trkpt>
      <trkpt lat="47.05689" lon="-0.82747">
        <ele>155</ele>
        <time>2016-09-27T07:52:27.644Z</time>
      </trkpt>
      <trkpt lat="47.05678" lon="-0.82751">
        <ele>154</ele>
        <time>2016-09-27T07:52:33.644Z</time>
      </trkpt>
      <trkpt lat="47.05668" lon="-0.82759">
        <ele>154</ele>
        <time>2016-09-27T07:52:39.644Z</time>
      </trkpt>
      <trkpt lat="47.05656" lon="-0.82764">
        <ele>153</ele>
        <time>2016-09-27T07:52:47.644Z</time>
      </trkpt>
      <trkpt lat="47.05652" lon="-0.82766">
        <ele>152.53600593912</ele>
        <time>2016-09-27T07:52:50.644Z</time>
      </trkpt>
      <trkpt lat="47.05644" lon="-0.82768">
        <ele>152</ele>
        <time>2016-09-27T07:52:56.644Z</time>
      </trkpt>
      <trkpt lat="47.05639" lon="-0.82771">
        <ele>152</ele>
        <time>2016-09-27T07:52:59.644Z</time>
      </trkpt>
      <trkpt lat="47.05634" lon="-0.82774">
        <ele>152</ele>
        <time>2016-09-27T07:53:02.644Z</time>
      </trkpt>
      <trkpt lat="47.0563" lon="-0.82776">
        <ele>152</ele>
        <time>2016-09-27T07:53:05.644Z</time>
      </trkpt>
      <trkpt lat="47.05625" lon="-0.82779">
        <ele>152</ele>
        <time>2016-09-27T07:53:08.644Z</time>
      </trkpt>
      <trkpt lat="47.05621" lon="-0.82783">
        <ele>152</ele>
        <time>2016-09-27T07:53:11.644Z</time>
      </trkpt>
      <trkpt lat="47.05617" lon="-0.82785">
        <ele>152</ele>
        <time>2016-09-27T07:53:13.644Z</time>
      </trkpt>
      <trkpt lat="47.05614" lon="-0.82787">
        <ele>152</ele>
        <time>2016-09-27T07:53:15.644Z</time>
      </trkpt>
      <trkpt lat="47.0561" lon="-0.82789">
        <ele>152</ele>
        <time>2016-09-27T07:53:17.644Z</time>
      </trkpt>
      <trkpt lat="47.05607" lon="-0.82792">
        <ele>152</ele>
        <time>2016-09-27T07:53:19.644Z</time>
      </trkpt>
      <trkpt lat="47.05603" lon="-0.82795">
        <ele>151</ele>
        <time>2016-09-27T07:53:22.644Z</time>
      </trkpt>
      <trkpt lat="47.056" lon="-0.82798">
        <ele>151</ele>
        <time>2016-09-27T07:53:25.644Z</time>
      </trkpt>
      <trkpt lat="47.05596" lon="-0.82802">
        <ele>151</ele>
        <time>2016-09-27T07:53:28.644Z</time>
      </trkpt>
      <trkpt lat="47.05592" lon="-0.82804">
        <ele>150.63810075275</ele>
        <time>2016-09-27T07:53:30.644Z</time>
      </trkpt>
      <trkpt lat="47.05589" lon="-0.82807">
        <ele>150</ele>
        <time>2016-09-27T07:53:32.644Z</time>
      </trkpt>
      <trkpt lat="47.05586" lon="-0.8281">
        <ele>150</ele>
        <time>2016-09-27T07:53:34.644Z</time>
      </trkpt>
      <trkpt lat="47.05582" lon="-0.82813">
        <ele>150</ele>
        <time>2016-09-27T07:53:37.644Z</time>
      </trkpt>
      <trkpt lat="47.05578" lon="-0.82817">
        <ele>149.67552520162</ele>
        <time>2016-09-27T07:53:40.644Z</time>
      </trkpt>
      <trkpt lat="47.05574" lon="-0.82821">
        <ele>149</ele>
        <time>2016-09-27T07:53:43.644Z</time>
      </trkpt>
      <trkpt lat="47.05571" lon="-0.82823">
        <ele>149</ele>
        <time>2016-09-27T07:53:45.644Z</time>
      </trkpt>
      <trkpt lat="47.05566" lon="-0.82825">
        <ele>149</ele>
        <time>2016-09-27T07:53:48.644Z</time>
      </trkpt>
      <trkpt lat="47.05562" lon="-0.82826">
        <ele>148</ele>
        <time>2016-09-27T07:53:51.644Z</time>
      </trkpt>
      <trkpt lat="47.05557" lon="-0.82828">
        <ele>148</ele>
        <time>2016-09-27T07:53:54.644Z</time>
      </trkpt>
      <trkpt lat="47.05553" lon="-0.8283">
        <ele>148</ele>
        <time>2016-09-27T07:53:57.644Z</time>
      </trkpt>
      <trkpt lat="47.0555" lon="-0.82832">
        <ele>148</ele>
        <time>2016-09-27T07:53:59.644Z</time>
      </trkpt>
      <trkpt lat="47.05546" lon="-0.82833">
        <ele>147</ele>
        <time>2016-09-27T07:54:01.644Z</time>
      </trkpt>
      <trkpt lat="47.05542" lon="-0.82834">
        <ele>147</ele>
        <time>2016-09-27T07:54:03.644Z</time>
      </trkpt>
      <trkpt lat="47.05538" lon="-0.82836">
        <ele>147</ele>
        <time>2016-09-27T07:54:05.644Z</time>
      </trkpt>
      <trkpt lat="47.05535" lon="-0.82839">
        <ele>147</ele>
        <time>2016-09-27T07:54:07.644Z</time>
      </trkpt>
      <trkpt lat="47.05531" lon="-0.82842">
        <ele>147</ele>
        <time>2016-09-27T07:54:10.644Z</time>
      </trkpt>
      <trkpt lat="47.05519" lon="-0.82848">
        <ele>147</ele>
        <time>2016-09-27T07:54:17.644Z</time>
      </trkpt>
      <trkpt lat="47.05514" lon="-0.82849">
        <ele>147</ele>
        <time>2016-09-27T07:54:20.644Z</time>
      </trkpt>
      <trkpt lat="47.0551" lon="-0.8285">
        <ele>147</ele>
        <time>2016-09-27T07:54:23.644Z</time>
      </trkpt>
      <trkpt lat="47.05506" lon="-0.82851">
        <ele>147</ele>
        <time>2016-09-27T07:54:26.644Z</time>
      </trkpt>
      <trkpt lat="47.05502" lon="-0.82853">
        <ele>147</ele>
        <time>2016-09-27T07:54:29.644Z</time>
      </trkpt>
      <trkpt lat="47.05497" lon="-0.82856">
        <ele>147</ele>
        <time>2016-09-27T07:54:32.644Z</time>
      </trkpt>
      <trkpt lat="47.05493" lon="-0.82858">
        <ele>147</ele>
        <time>2016-09-27T07:54:35.644Z</time>
      </trkpt>
      <trkpt lat="47.05489" lon="-0.82859">
        <ele>147</ele>
        <time>2016-09-27T07:54:38.644Z</time>
      </trkpt>
      <trkpt lat="47.05484" lon="-0.82861">
        <ele>146</ele>
        <time>2016-09-27T07:54:41.644Z</time>
      </trkpt>
      <trkpt lat="47.0548" lon="-0.82863">
        <ele>146</ele>
        <time>2016-09-27T07:54:44.644Z</time>
      </trkpt>
      <trkpt lat="47.05471" lon="-0.82866">
        <ele>146</ele>
        <time>2016-09-27T07:54:49.644Z</time>
      </trkpt>
      <trkpt lat="47.05466" lon="-0.82869">
        <ele>146</ele>
        <time>2016-09-27T07:54:52.644Z</time>
      </trkpt>
      <trkpt lat="47.05461" lon="-0.82875">
        <ele>146</ele>
        <time>2016-09-27T07:54:56.644Z</time>
      </trkpt>
      <trkpt lat="47.0546" lon="-0.82883">
        <ele>146</ele>
        <time>2016-09-27T07:54:59.644Z</time>
      </trkpt>
      <trkpt lat="47.05458" lon="-0.82888">
        <ele>146</ele>
        <time>2016-09-27T07:55:01.644Z</time>
      </trkpt>
      <trkpt lat="47.05455" lon="-0.82891">
        <ele>146</ele>
        <time>2016-09-27T07:55:04.644Z</time>
      </trkpt>
      <trkpt lat="47.05451" lon="-0.82894">
        <ele>146</ele>
        <time>2016-09-27T07:55:08.644Z</time>
      </trkpt>
      <trkpt lat="47.0544" lon="-0.829">
        <ele>146</ele>
        <time>2016-09-27T07:55:15.644Z</time>
      </trkpt>
      <trkpt lat="47.05435" lon="-0.82902">
        <ele>146</ele>
        <time>2016-09-27T07:55:18.644Z</time>
      </trkpt>
      <trkpt lat="47.0543" lon="-0.82903">
        <ele>146</ele>
        <time>2016-09-27T07:55:21.644Z</time>
      </trkpt>
      <trkpt lat="47.05426" lon="-0.82906">
        <ele>146</ele>
        <time>2016-09-27T07:55:24.644Z</time>
      </trkpt>
      <trkpt lat="47.05421" lon="-0.82908">
        <ele>146</ele>
        <time>2016-09-27T07:55:27.644Z</time>
      </trkpt>
      <trkpt lat="47.05417" lon="-0.8291">
        <ele>146</ele>
        <time>2016-09-27T07:55:30.644Z</time>
      </trkpt>
      <trkpt lat="47.05412" lon="-0.82912">
        <ele>146</ele>
        <time>2016-09-27T07:55:33.644Z</time>
      </trkpt>
      <trkpt lat="47.05408" lon="-0.82913">
        <ele>146</ele>
        <time>2016-09-27T07:55:36.644Z</time>
      </trkpt>
      <trkpt lat="47.05402" lon="-0.82916">
        <ele>146</ele>
        <time>2016-09-27T07:55:39.644Z</time>
      </trkpt>
      <trkpt lat="47.05398" lon="-0.82917">
        <ele>146</ele>
        <time>2016-09-27T07:55:41.644Z</time>
      </trkpt>
      <trkpt lat="47.05394" lon="-0.82917">
        <ele>146</ele>
        <time>2016-09-27T07:55:43.644Z</time>
      </trkpt>
      <trkpt lat="47.0539" lon="-0.8292">
        <ele>146</ele>
        <time>2016-09-27T07:55:46.644Z</time>
      </trkpt>
      <trkpt lat="47.05386" lon="-0.82922">
        <ele>146</ele>
        <time>2016-09-27T07:55:49.644Z</time>
      </trkpt>
      <trkpt lat="47.05382" lon="-0.82924">
        <ele>146</ele>
        <time>2016-09-27T07:55:52.644Z</time>
      </trkpt>
      <trkpt lat="47.05378" lon="-0.82926">
        <ele>146</ele>
        <time>2016-09-27T07:55:55.644Z</time>
      </trkpt>
      <trkpt lat="47.05374" lon="-0.82929">
        <ele>146</ele>
        <time>2016-09-27T07:55:58.644Z</time>
      </trkpt>
      <trkpt lat="47.0537" lon="-0.82932">
        <ele>146</ele>
        <time>2016-09-27T07:56:01.644Z</time>
      </trkpt>
      <trkpt lat="47.05367" lon="-0.82935">
        <ele>146</ele>
        <time>2016-09-27T07:56:03.644Z</time>
      </trkpt>
      <trkpt lat="47.05363" lon="-0.82938">
        <ele>146</ele>
        <time>2016-09-27T07:56:05.644Z</time>
      </trkpt>
      <trkpt lat="47.05359" lon="-0.82942">
        <ele>146</ele>
        <time>2016-09-27T07:56:08.644Z</time>
      </trkpt>
      <trkpt lat="47.05355" lon="-0.82946">
        <ele>146</ele>
        <time>2016-09-27T07:56:11.644Z</time>
      </trkpt>
      <trkpt lat="47.05351" lon="-0.82948">
        <ele>146</ele>
        <time>2016-09-27T07:56:13.644Z</time>
      </trkpt>
      <trkpt lat="47.05347" lon="-0.82951">
        <ele>146</ele>
        <time>2016-09-27T07:56:16.644Z</time>
      </trkpt>
      <trkpt lat="47.05343" lon="-0.82955">
        <ele>146</ele>
        <time>2016-09-27T07:56:19.644Z</time>
      </trkpt>
      <trkpt lat="47.05337" lon="-0.82962">
        <ele>146</ele>
        <time>2016-09-27T07:56:24.644Z</time>
      </trkpt>
      <trkpt lat="47.05327" lon="-0.82972">
        <ele>146</ele>
        <time>2016-09-27T07:56:31.644Z</time>
      </trkpt>
      <trkpt lat="47.0532" lon="-0.82979">
        <ele>146</ele>
        <time>2016-09-27T07:56:38.644Z</time>
      </trkpt>
      <trkpt lat="47.05318" lon="-0.82985">
        <ele>146</ele>
        <time>2016-09-27T07:56:41.644Z</time>
      </trkpt>
      <trkpt lat="47.05314" lon="-0.83002">
        <ele>146</ele>
        <time>2016-09-27T07:56:48.644Z</time>
      </trkpt>
      <trkpt lat="47.05314" lon="-0.83018">
        <ele>145</ele>
        <time>2016-09-27T07:56:56.644Z</time>
      </trkpt>
      <trkpt lat="47.05321" lon="-0.83032">
        <ele>144</ele>
        <time>2016-09-27T07:57:03.644Z</time>
      </trkpt>
      <trkpt lat="47.05327" lon="-0.83047">
        <ele>144</ele>
        <time>2016-09-27T07:57:09.644Z</time>
      </trkpt>
      <trkpt lat="47.05329" lon="-0.83059">
        <ele>144</ele>
        <time>2016-09-27T07:57:15.644Z</time>
      </trkpt>
      <trkpt lat="47.05328" lon="-0.83065">
        <ele>144</ele>
        <time>2016-09-27T07:57:18.644Z</time>
      </trkpt>
      <trkpt lat="47.05327" lon="-0.8307">
        <ele>144</ele>
        <time>2016-09-27T07:57:20.644Z</time>
      </trkpt>
      <trkpt lat="47.05316" lon="-0.83075">
        <ele>144</ele>
        <time>2016-09-27T07:57:27.644Z</time>
      </trkpt>
      <trkpt lat="47.05306" lon="-0.83073">
        <ele>143</ele>
        <time>2016-09-27T07:57:33.644Z</time>
      </trkpt>
      <trkpt lat="47.05301" lon="-0.8308">
        <ele>143</ele>
        <time>2016-09-27T07:57:37.644Z</time>
      </trkpt>
      <trkpt lat="47.05298" lon="-0.83097">
        <ele>143</ele>
        <time>2016-09-27T07:57:43.644Z</time>
      </trkpt>
      <trkpt lat="47.05297" lon="-0.83108">
        <ele>143</ele>
        <time>2016-09-27T07:57:48.644Z</time>
      </trkpt>
      <trkpt lat="47.05296" lon="-0.83115">
        <ele>143</ele>
        <time>2016-09-27T07:57:51.644Z</time>
      </trkpt>
      <trkpt lat="47.05295" lon="-0.8312">
        <ele>143</ele>
        <time>2016-09-27T07:57:53.644Z</time>
      </trkpt>
      <trkpt lat="47.05293" lon="-0.83125">
        <ele>143</ele>
        <time>2016-09-27T07:57:56.644Z</time>
      </trkpt>
      <trkpt lat="47.05291" lon="-0.83132">
        <ele>143</ele>
        <time>2016-09-27T07:57:59.644Z</time>
      </trkpt>
      <trkpt lat="47.05289" lon="-0.83137">
        <ele>142</ele>
        <time>2016-09-27T07:58:02.644Z</time>
      </trkpt>
      <trkpt lat="47.05288" lon="-0.83143">
        <ele>142</ele>
        <time>2016-09-27T07:58:05.644Z</time>
      </trkpt>
      <trkpt lat="47.05287" lon="-0.83148">
        <ele>142</ele>
        <time>2016-09-27T07:58:07.644Z</time>
      </trkpt>
      <trkpt lat="47.05284" lon="-0.83154">
        <ele>142</ele>
        <time>2016-09-27T07:58:10.644Z</time>
      </trkpt>
      <trkpt lat="47.05278" lon="-0.83168">
        <ele>142</ele>
        <time>2016-09-27T07:58:17.644Z</time>
      </trkpt>
      <trkpt lat="47.05274" lon="-0.83173">
        <ele>142</ele>
        <time>2016-09-27T07:58:20.644Z</time>
      </trkpt>
      <trkpt lat="47.05268" lon="-0.83186">
        <ele>142</ele>
        <time>2016-09-27T07:58:27.644Z</time>
      </trkpt>
      <trkpt lat="47.0526" lon="-0.832">
        <ele>142</ele>
        <time>2016-09-27T07:58:35.644Z</time>
      </trkpt>
      <trkpt lat="47.05252" lon="-0.83212">
        <ele>142</ele>
        <time>2016-09-27T07:58:44.644Z</time>
      </trkpt>
      <trkpt lat="47.05243" lon="-0.83224">
        <ele>141</ele>
        <time>2016-09-27T07:58:51.644Z</time>
      </trkpt>
      <trkpt lat="47.05237" lon="-0.8323">
        <ele>141</ele>
        <time>2016-09-27T07:58:55.644Z</time>
      </trkpt>
      <trkpt lat="47.05234" lon="-0.83232">
        <ele>141</ele>
        <time>2016-09-27T07:58:57.644Z</time>
      </trkpt>
      <trkpt lat="47.05225" lon="-0.83243">
        <ele>141</ele>
        <time>2016-09-27T07:59:04.644Z</time>
      </trkpt>
      <trkpt lat="47.05215" lon="-0.83252">
        <ele>141</ele>
        <time>2016-09-27T07:59:12.644Z</time>
      </trkpt>
      <trkpt lat="47.05209" lon="-0.83259">
        <ele>141</ele>
        <time>2016-09-27T07:59:16.644Z</time>
      </trkpt>
      <trkpt lat="47.05206" lon="-0.83261">
        <ele>141</ele>
        <time>2016-09-27T07:59:18.644Z</time>
      </trkpt>
      <trkpt lat="47.05202" lon="-0.83265">
        <ele>141</ele>
        <time>2016-09-27T07:59:21.644Z</time>
      </trkpt>
      <trkpt lat="47.05196" lon="-0.83268">
        <ele>141</ele>
        <time>2016-09-27T07:59:25.644Z</time>
      </trkpt>
      <trkpt lat="47.05186" lon="-0.83276">
        <ele>141</ele>
        <time>2016-09-27T07:59:32.644Z</time>
      </trkpt>
      <trkpt lat="47.05183" lon="-0.8328">
        <ele>141</ele>
        <time>2016-09-27T07:59:35.644Z</time>
      </trkpt>
      <trkpt lat="47.05181" lon="-0.83285">
        <ele>141</ele>
        <time>2016-09-27T07:59:38.644Z</time>
      </trkpt>
      <trkpt lat="47.05177" lon="-0.8329">
        <ele>141</ele>
        <time>2016-09-27T07:59:41.644Z</time>
      </trkpt>
      <trkpt lat="47.05173" lon="-0.83293">
        <ele>141</ele>
        <time>2016-09-27T07:59:44.644Z</time>
      </trkpt>
      <trkpt lat="47.05169" lon="-0.83297">
        <ele>141</ele>
        <time>2016-09-27T07:59:47.644Z</time>
      </trkpt>
      <trkpt lat="47.05167" lon="-0.83301">
        <ele>141</ele>
        <time>2016-09-27T07:59:49.644Z</time>
      </trkpt>
      <trkpt lat="47.05163" lon="-0.83305">
        <ele>140.67777777778</ele>
        <time>2016-09-27T07:59:51.644Z</time>
      </trkpt>
      <trkpt lat="47.05159" lon="-0.8331">
        <ele>140</ele>
        <time>2016-09-27T07:59:54.644Z</time>
      </trkpt>
      <trkpt lat="47.05155" lon="-0.83314">
        <ele>140</ele>
        <time>2016-09-27T07:59:57.644Z</time>
      </trkpt>
      <trkpt lat="47.05152" lon="-0.83318">
        <ele>140</ele>
        <time>2016-09-27T08:00:00.644Z</time>
      </trkpt>
      <trkpt lat="47.05148" lon="-0.83323">
        <ele>141</ele>
        <time>2016-09-27T08:00:04.644Z</time>
      </trkpt>
      <trkpt lat="47.05145" lon="-0.83327">
        <ele>141</ele>
        <time>2016-09-27T08:00:07.644Z</time>
      </trkpt>
      <trkpt lat="47.05141" lon="-0.83332">
        <ele>141</ele>
        <time>2016-09-27T08:00:10.644Z</time>
      </trkpt>
      <trkpt lat="47.05137" lon="-0.83336">
        <ele>141</ele>
        <time>2016-09-27T08:00:13.644Z</time>
      </trkpt>
      <trkpt lat="47.05134" lon="-0.8334">
        <ele>141</ele>
        <time>2016-09-27T08:00:16.644Z</time>
      </trkpt>
      <trkpt lat="47.0513" lon="-0.83346">
        <ele>141</ele>
        <time>2016-09-27T08:00:19.644Z</time>
      </trkpt>
      <trkpt lat="47.05126" lon="-0.83352">
        <ele>140</ele>
        <time>2016-09-27T08:00:23.644Z</time>
      </trkpt>
      <trkpt lat="47.05122" lon="-0.83357">
        <ele>140</ele>
        <time>2016-09-27T08:00:26.644Z</time>
      </trkpt>
      <trkpt lat="47.05119" lon="-0.83361">
        <ele>140</ele>
        <time>2016-09-27T08:00:28.644Z</time>
      </trkpt>
      <trkpt lat="47.05115" lon="-0.83366">
        <ele>140</ele>
        <time>2016-09-27T08:00:31.644Z</time>
      </trkpt>
      <trkpt lat="47.05111" lon="-0.8337">
        <ele>140</ele>
        <time>2016-09-27T08:00:34.644Z</time>
      </trkpt>
      <trkpt lat="47.05106" lon="-0.83373">
        <ele>140</ele>
        <time>2016-09-27T08:00:37.644Z</time>
      </trkpt>
      <trkpt lat="47.05103" lon="-0.83376">
        <ele>140</ele>
        <time>2016-09-27T08:00:39.644Z</time>
      </trkpt>
      <trkpt lat="47.051" lon="-0.83382">
        <ele>140</ele>
        <time>2016-09-27T08:00:42.644Z</time>
      </trkpt>
      <trkpt lat="47.05097" lon="-0.83388">
        <ele>140</ele>
        <time>2016-09-27T08:00:45.644Z</time>
      </trkpt>
      <trkpt lat="47.05093" lon="-0.83393">
        <ele>140</ele>
        <time>2016-09-27T08:00:48.644Z</time>
      </trkpt>
      <trkpt lat="47.0509" lon="-0.83397">
        <ele>140</ele>
        <time>2016-09-27T08:00:51.644Z</time>
      </trkpt>
      <trkpt lat="47.05086" lon="-0.83401">
        <ele>140</ele>
        <time>2016-09-27T08:00:54.644Z</time>
      </trkpt>
      <trkpt lat="47.05084" lon="-0.83406">
        <ele>140</ele>
        <time>2016-09-27T08:00:57.644Z</time>
      </trkpt>
      <trkpt lat="47.0508" lon="-0.83409">
        <ele>139.92414980249</ele>
        <time>2016-09-27T08:01:00.644Z</time>
      </trkpt>
      <trkpt lat="47.05076" lon="-0.83413">
        <ele>139</ele>
        <time>2016-09-27T08:01:03.644Z</time>
      </trkpt>
      <trkpt lat="47.05071" lon="-0.83415">
        <ele>139</ele>
        <time>2016-09-27T08:01:06.644Z</time>
      </trkpt>
      <trkpt lat="47.05067" lon="-0.83417">
        <ele>139</ele>
        <time>2016-09-27T08:01:09.644Z</time>
      </trkpt>
      <trkpt lat="47.05062" lon="-0.83419">
        <ele>139</ele>
        <time>2016-09-27T08:01:12.644Z</time>
      </trkpt>
      <trkpt lat="47.05058" lon="-0.83421">
        <ele>139</ele>
        <time>2016-09-27T08:01:15.644Z</time>
      </trkpt>
      <trkpt lat="47.05053" lon="-0.83425">
        <ele>139</ele>
        <time>2016-09-27T08:01:18.644Z</time>
      </trkpt>
      <trkpt lat="47.05049" lon="-0.83428">
        <ele>139</ele>
        <time>2016-09-27T08:01:21.644Z</time>
      </trkpt>
      <trkpt lat="47.05045" lon="-0.83432">
        <ele>139</ele>
        <time>2016-09-27T08:01:24.644Z</time>
      </trkpt>
      <trkpt lat="47.05034" lon="-0.83439">
        <ele>139</ele>
        <time>2016-09-27T08:01:31.644Z</time>
      </trkpt>
      <trkpt lat="47.05031" lon="-0.83441">
        <ele>139</ele>
        <time>2016-09-27T08:01:33.644Z</time>
      </trkpt>
      <trkpt lat="47.05027" lon="-0.83443">
        <ele>139</ele>
        <time>2016-09-27T08:01:35.644Z</time>
      </trkpt>
      <trkpt lat="47.05023" lon="-0.83444">
        <ele>139</ele>
        <time>2016-09-27T08:01:38.644Z</time>
      </trkpt>
      <trkpt lat="47.05019" lon="-0.83447">
        <ele>139</ele>
        <time>2016-09-27T08:01:40.644Z</time>
      </trkpt>
      <trkpt lat="47.05016" lon="-0.83449">
        <ele>139</ele>
        <time>2016-09-27T08:01:42.644Z</time>
      </trkpt>
      <trkpt lat="47.05012" lon="-0.83451">
        <ele>139</ele>
        <time>2016-09-27T08:01:45.644Z</time>
      </trkpt>
      <trkpt lat="47.05007" lon="-0.83453">
        <ele>139</ele>
        <time>2016-09-27T08:01:49.644Z</time>
      </trkpt>
      <trkpt lat="47.05004" lon="-0.83455">
        <ele>139</ele>
        <time>2016-09-27T08:01:52.644Z</time>
      </trkpt>
      <trkpt lat="47.05" lon="-0.83456">
        <ele>139</ele>
        <time>2016-09-27T08:01:54.644Z</time>
      </trkpt>
      <trkpt lat="47.04995" lon="-0.83459">
        <ele>139</ele>
        <time>2016-09-27T08:01:57.644Z</time>
      </trkpt>
      <trkpt lat="47.04985" lon="-0.83466">
        <ele>138</ele>
        <time>2016-09-27T08:02:03.644Z</time>
      </trkpt>
      <trkpt lat="47.04981" lon="-0.83469">
        <ele>138</ele>
        <time>2016-09-27T08:02:05.644Z</time>
      </trkpt>
      <trkpt lat="47.04977" lon="-0.83472">
        <ele>138</ele>
        <time>2016-09-27T08:02:08.644Z</time>
      </trkpt>
      <trkpt lat="47.04973" lon="-0.83475">
        <ele>138</ele>
        <time>2016-09-27T08:02:11.644Z</time>
      </trkpt>
      <trkpt lat="47.04969" lon="-0.83478">
        <ele>138</ele>
        <time>2016-09-27T08:02:14.644Z</time>
      </trkpt>
      <trkpt lat="47.04966" lon="-0.8348">
        <ele>138</ele>
        <time>2016-09-27T08:02:17.644Z</time>
      </trkpt>
      <trkpt lat="47.04962" lon="-0.83482">
        <ele>138</ele>
        <time>2016-09-27T08:02:20.644Z</time>
      </trkpt>
      <trkpt lat="47.04959" lon="-0.83484">
        <ele>137</ele>
        <time>2016-09-27T08:02:22.644Z</time>
      </trkpt>
      <trkpt lat="47.04956" lon="-0.83487">
        <ele>137</ele>
        <time>2016-09-27T08:02:24.644Z</time>
      </trkpt>
      <trkpt lat="47.04947" lon="-0.83492">
        <ele>137</ele>
        <time>2016-09-27T08:02:29.644Z</time>
      </trkpt>
      <trkpt lat="47.04942" lon="-0.83495">
        <ele>136</ele>
        <time>2016-09-27T08:02:32.644Z</time>
      </trkpt>
      <trkpt lat="47.04939" lon="-0.83498">
        <ele>136</ele>
        <time>2016-09-27T08:02:35.644Z</time>
      </trkpt>
      <trkpt lat="47.04935" lon="-0.83501">
        <ele>136</ele>
        <time>2016-09-27T08:02:38.644Z</time>
      </trkpt>
      <trkpt lat="47.04932" lon="-0.83506">
        <ele>136</ele>
        <time>2016-09-27T08:02:41.644Z</time>
      </trkpt>
      <trkpt lat="47.04928" lon="-0.83509">
        <ele>136</ele>
        <time>2016-09-27T08:02:44.644Z</time>
      </trkpt>
      <trkpt lat="47.04923" lon="-0.83512">
        <ele>136</ele>
        <time>2016-09-27T08:02:46.644Z</time>
      </trkpt>
      <trkpt lat="47.04917" lon="-0.83518">
        <ele>136</ele>
        <time>2016-09-27T08:02:48.644Z</time>
      </trkpt>
      <trkpt lat="47.04913" lon="-0.83522">
        <ele>135.53600593912</ele>
        <time>2016-09-27T08:02:50.644Z</time>
      </trkpt>
      <trkpt lat="47.04909" lon="-0.83526">
        <ele>135</ele>
        <time>2016-09-27T08:02:52.644Z</time>
      </trkpt>
      <trkpt lat="47.04906" lon="-0.83528">
        <ele>135</ele>
        <time>2016-09-27T08:02:54.644Z</time>
      </trkpt>
      <trkpt lat="47.04903" lon="-0.83531">
        <ele>135</ele>
        <time>2016-09-27T08:02:57.644Z</time>
      </trkpt>
      <trkpt lat="47.04898" lon="-0.83533">
        <ele>134.55258504658</ele>
        <time>2016-09-27T08:03:00.644Z</time>
      </trkpt>
      <trkpt lat="47.04894" lon="-0.83534">
        <ele>134</ele>
        <time>2016-09-27T08:03:03.644Z</time>
      </trkpt>
      <trkpt lat="47.04889" lon="-0.83537">
        <ele>134</ele>
        <time>2016-09-27T08:03:06.644Z</time>
      </trkpt>
      <trkpt lat="47.04885" lon="-0.83539">
        <ele>134</ele>
        <time>2016-09-27T08:03:08.644Z</time>
      </trkpt>
      <trkpt lat="47.04881" lon="-0.83542">
        <ele>134</ele>
        <time>2016-09-27T08:03:11.644Z</time>
      </trkpt>
      <trkpt lat="47.04876" lon="-0.83544">
        <ele>134</ele>
        <time>2016-09-27T08:03:15.644Z</time>
      </trkpt>
      <trkpt lat="47.04872" lon="-0.83548">
        <ele>134</ele>
        <time>2016-09-27T08:03:18.644Z</time>
      </trkpt>
      <trkpt lat="47.04869" lon="-0.83551">
        <ele>134</ele>
        <time>2016-09-27T08:03:20.644Z</time>
      </trkpt>
      <trkpt lat="47.04864" lon="-0.83555">
        <ele>134</ele>
        <time>2016-09-27T08:03:23.644Z</time>
      </trkpt>
      <trkpt lat="47.04861" lon="-0.8356">
        <ele>134</ele>
        <time>2016-09-27T08:03:25.644Z</time>
      </trkpt>
      <trkpt lat="47.0486" lon="-0.83567">
        <ele>134</ele>
        <time>2016-09-27T08:03:28.644Z</time>
      </trkpt>
      <trkpt lat="47.04861" lon="-0.83574">
        <ele>134</ele>
        <time>2016-09-27T08:03:31.644Z</time>
      </trkpt>
      <trkpt lat="47.04862" lon="-0.83579">
        <ele>134</ele>
        <time>2016-09-27T08:03:33.644Z</time>
      </trkpt>
      <trkpt lat="47.04863" lon="-0.83584">
        <ele>134</ele>
        <time>2016-09-27T08:03:35.644Z</time>
      </trkpt>
      <trkpt lat="47.04865" lon="-0.83591">
        <ele>134</ele>
        <time>2016-09-27T08:03:38.644Z</time>
      </trkpt>
      <trkpt lat="47.04866" lon="-0.83597">
        <ele>134</ele>
        <time>2016-09-27T08:03:41.644Z</time>
      </trkpt>
      <trkpt lat="47.04868" lon="-0.83602">
        <ele>134</ele>
        <time>2016-09-27T08:03:43.644Z</time>
      </trkpt>
      <trkpt lat="47.0487" lon="-0.83607">
        <ele>134</ele>
        <time>2016-09-27T08:03:45.644Z</time>
      </trkpt>
      <trkpt lat="47.04873" lon="-0.83613">
        <ele>134</ele>
        <time>2016-09-27T08:03:48.644Z</time>
      </trkpt>
      <trkpt lat="47.04876" lon="-0.83619">
        <ele>134</ele>
        <time>2016-09-27T08:03:51.644Z</time>
      </trkpt>
      <trkpt lat="47.04877" lon="-0.83626">
        <ele>134</ele>
        <time>2016-09-27T08:03:54.644Z</time>
      </trkpt>
      <trkpt lat="47.04878" lon="-0.83634">
        <ele>134</ele>
        <time>2016-09-27T08:03:57.644Z</time>
      </trkpt>
      <trkpt lat="47.04879" lon="-0.8364">
        <ele>134.01267464753</ele>
        <time>2016-09-27T08:04:00.644Z</time>
      </trkpt>
      <trkpt lat="47.04878" lon="-0.83657">
        <ele>135</ele>
        <time>2016-09-27T08:05:44.644Z</time>
      </trkpt>
      <trkpt lat="47.04876" lon="-0.83661">
        <ele>135</ele>
        <time>2016-09-27T08:05:47.644Z</time>
      </trkpt>
      <trkpt lat="47.04873" lon="-0.83667">
        <ele>134.64307868023</ele>
        <time>2016-09-27T08:05:50.644Z</time>
      </trkpt>
      <trkpt lat="47.04865" lon="-0.83681">
        <ele>134</ele>
        <time>2016-09-27T08:05:58.644Z</time>
      </trkpt>
      <trkpt lat="47.04855" lon="-0.8369">
        <ele>133</ele>
        <time>2016-09-27T08:06:05.644Z</time>
      </trkpt>
      <trkpt lat="47.04843" lon="-0.83695">
        <ele>134</ele>
        <time>2016-09-27T08:06:13.644Z</time>
      </trkpt>
      <trkpt lat="47.04833" lon="-0.83701">
        <ele>134</ele>
        <time>2016-09-27T08:06:20.644Z</time>
      </trkpt>
      <trkpt lat="47.04821" lon="-0.83708">
        <ele>134</ele>
        <time>2016-09-27T08:06:28.644Z</time>
      </trkpt>
      <trkpt lat="47.0481" lon="-0.83715">
        <ele>134</ele>
        <time>2016-09-27T08:06:35.644Z</time>
      </trkpt>
      <trkpt lat="47.04806" lon="-0.83717">
        <ele>134</ele>
        <time>2016-09-27T08:06:38.644Z</time>
      </trkpt>
      <trkpt lat="47.04801" lon="-0.8372">
        <ele>133.78823130788</ele>
        <time>2016-09-27T08:06:41.644Z</time>
      </trkpt>
      <trkpt lat="47.04797" lon="-0.83722">
        <ele>133</ele>
        <time>2016-09-27T08:06:44.644Z</time>
      </trkpt>
      <trkpt lat="47.04794" lon="-0.83724">
        <ele>133</ele>
        <time>2016-09-27T08:06:46.644Z</time>
      </trkpt>
      <trkpt lat="47.04783" lon="-0.83732">
        <ele>133</ele>
        <time>2016-09-27T08:06:54.644Z</time>
      </trkpt>
      <trkpt lat="47.04773" lon="-0.83739">
        <ele>133</ele>
        <time>2016-09-27T08:07:00.644Z</time>
      </trkpt>
      <trkpt lat="47.04762" lon="-0.83745">
        <ele>133</ele>
        <time>2016-09-27T08:07:08.644Z</time>
      </trkpt>
      <trkpt lat="47.04751" lon="-0.83751">
        <ele>134</ele>
        <time>2016-09-27T08:07:15.644Z</time>
      </trkpt>
      <trkpt lat="47.04739" lon="-0.83758">
        <ele>134</ele>
        <time>2016-09-27T08:07:23.644Z</time>
      </trkpt>
      <trkpt lat="47.04729" lon="-0.83763">
        <ele>133.6457960644</ele>
        <time>2016-09-27T08:07:30.644Z</time>
      </trkpt>
      <trkpt lat="47.04719" lon="-0.8377">
        <ele>133</ele>
        <time>2016-09-27T08:07:37.644Z</time>
      </trkpt>
      <trkpt lat="47.04708" lon="-0.83776">
        <ele>133</ele>
        <time>2016-09-27T08:07:44.644Z</time>
      </trkpt>
      <trkpt lat="47.04698" lon="-0.83782">
        <ele>133</ele>
        <time>2016-09-27T08:07:51.644Z</time>
      </trkpt>
      <trkpt lat="47.04687" lon="-0.83788">
        <ele>133</ele>
        <time>2016-09-27T08:07:59.644Z</time>
      </trkpt>
      <trkpt lat="47.04677" lon="-0.83795">
        <ele>133</ele>
        <time>2016-09-27T08:08:06.644Z</time>
      </trkpt>
      <trkpt lat="47.04666" lon="-0.83801">
        <ele>133</ele>
        <time>2016-09-27T08:08:14.644Z</time>
      </trkpt>
      <trkpt lat="47.04655" lon="-0.83808">
        <ele>133</ele>
        <time>2016-09-27T08:08:21.644Z</time>
      </trkpt>
      <trkpt lat="47.04645" lon="-0.83816">
        <ele>133</ele>
        <time>2016-09-27T08:08:27.644Z</time>
      </trkpt>
      <trkpt lat="47.04634" lon="-0.83823">
        <ele>133</ele>
        <time>2016-09-27T08:08:35.644Z</time>
      </trkpt>
      <trkpt lat="47.04623" lon="-0.8383">
        <ele>133</ele>
        <time>2016-09-27T08:08:44.644Z</time>
      </trkpt>
      <trkpt lat="47.04619" lon="-0.83833">
        <ele>133</ele>
        <time>2016-09-27T08:08:47.644Z</time>
      </trkpt>
      <trkpt lat="47.04608" lon="-0.83837">
        <ele>132</ele>
        <time>2016-09-27T08:08:53.644Z</time>
      </trkpt>
      <trkpt lat="47.04599" lon="-0.83847">
        <ele>132</ele>
        <time>2016-09-27T08:08:59.644Z</time>
      </trkpt>
      <trkpt lat="47.04589" lon="-0.83854">
        <ele>132</ele>
        <time>2016-09-27T08:09:07.644Z</time>
      </trkpt>
      <trkpt lat="47.04578" lon="-0.8386">
        <ele>132</ele>
        <time>2016-09-27T08:09:14.644Z</time>
      </trkpt>
      <trkpt lat="47.04568" lon="-0.83869">
        <ele>131</ele>
        <time>2016-09-27T08:09:22.644Z</time>
      </trkpt>
      <trkpt lat="47.04558" lon="-0.83878">
        <ele>131</ele>
        <time>2016-09-27T08:09:31.644Z</time>
      </trkpt>
      <trkpt lat="47.04553" lon="-0.83882">
        <ele>131</ele>
        <time>2016-09-27T08:09:34.644Z</time>
      </trkpt>
      <trkpt lat="47.04543" lon="-0.8389">
        <ele>130</ele>
        <time>2016-09-27T08:09:42.644Z</time>
      </trkpt>
      <trkpt lat="47.04532" lon="-0.83898">
        <ele>130</ele>
        <time>2016-09-27T08:09:49.644Z</time>
      </trkpt>
      <trkpt lat="47.04521" lon="-0.83906">
        <ele>130</ele>
        <time>2016-09-27T08:09:56.644Z</time>
      </trkpt>
      <trkpt lat="47.04514" lon="-0.83909">
        <ele>129</ele>
        <time>2016-09-27T08:10:01.644Z</time>
      </trkpt>
      <trkpt lat="47.04504" lon="-0.83918">
        <ele>129</ele>
        <time>2016-09-27T08:10:08.644Z</time>
      </trkpt>
      <trkpt lat="47.04493" lon="-0.83925">
        <ele>129</ele>
        <time>2016-09-27T08:10:16.644Z</time>
      </trkpt>
      <trkpt lat="47.04483" lon="-0.83932">
        <ele>129</ele>
        <time>2016-09-27T08:10:23.644Z</time>
      </trkpt>
      <trkpt lat="47.04476" lon="-0.83936">
        <ele>129</ele>
        <time>2016-09-27T08:10:28.644Z</time>
      </trkpt>
      <trkpt lat="47.0447" lon="-0.8394">
        <ele>129</ele>
        <time>2016-09-27T08:10:32.644Z</time>
      </trkpt>
      <trkpt lat="47.04466" lon="-0.83943">
        <ele>129</ele>
        <time>2016-09-27T08:10:35.644Z</time>
      </trkpt>
      <trkpt lat="47.04456" lon="-0.83949">
        <ele>128</ele>
        <time>2016-09-27T08:10:41.644Z</time>
      </trkpt>
      <trkpt lat="47.04453" lon="-0.83951">
        <ele>128</ele>
        <time>2016-09-27T08:10:43.644Z</time>
      </trkpt>
      <trkpt lat="47.04449" lon="-0.83955">
        <ele>128</ele>
        <time>2016-09-27T08:10:46.644Z</time>
      </trkpt>
      <trkpt lat="47.04445" lon="-0.83958">
        <ele>128</ele>
        <time>2016-09-27T08:10:49.644Z</time>
      </trkpt>
      <trkpt lat="47.04434" lon="-0.83967">
        <ele>128</ele>
        <time>2016-09-27T08:10:57.644Z</time>
      </trkpt>
      <trkpt lat="47.04431" lon="-0.8397">
        <ele>127.59652286185</ele>
        <time>2016-09-27T08:11:00.644Z</time>
      </trkpt>
      <trkpt lat="47.04423" lon="-0.83976">
        <ele>127</ele>
        <time>2016-09-27T08:11:05.644Z</time>
      </trkpt>
      <trkpt lat="47.0442" lon="-0.83979">
        <ele>127</ele>
        <time>2016-09-27T08:11:07.644Z</time>
      </trkpt>
      <trkpt lat="47.04409" lon="-0.83981">
        <ele>127</ele>
        <time>2016-09-27T08:11:14.644Z</time>
      </trkpt>
      <trkpt lat="47.04399" lon="-0.8397">
        <ele>127</ele>
        <time>2016-09-27T08:11:22.644Z</time>
      </trkpt>
      <trkpt lat="47.04396" lon="-0.83964">
        <ele>127</ele>
        <time>2016-09-27T08:11:25.644Z</time>
      </trkpt>
      <trkpt lat="47.04389" lon="-0.83953">
        <ele>126</ele>
        <time>2016-09-27T08:11:31.644Z</time>
      </trkpt>
      <trkpt lat="47.04385" lon="-0.83948">
        <ele>126</ele>
        <time>2016-09-27T08:11:34.644Z</time>
      </trkpt>
      <trkpt lat="47.04382" lon="-0.83945">
        <ele>126</ele>
        <time>2016-09-27T08:11:37.644Z</time>
      </trkpt>
      <trkpt lat="47.04373" lon="-0.83934">
        <ele>126</ele>
        <time>2016-09-27T08:11:44.644Z</time>
      </trkpt>
      <trkpt lat="47.04363" lon="-0.83925">
        <ele>125</ele>
        <time>2016-09-27T08:11:51.644Z</time>
      </trkpt>
      <trkpt lat="47.04355" lon="-0.83913">
        <ele>125</ele>
        <time>2016-09-27T08:11:58.644Z</time>
      </trkpt>
      <trkpt lat="47.04347" lon="-0.839">
        <ele>123</ele>
        <time>2016-09-27T08:12:05.644Z</time>
      </trkpt>
      <trkpt lat="47.04339" lon="-0.83889">
        <ele>123</ele>
        <time>2016-09-27T08:12:12.644Z</time>
      </trkpt>
      <trkpt lat="47.04335" lon="-0.83885">
        <ele>123</ele>
        <time>2016-09-27T08:12:15.644Z</time>
      </trkpt>
      <trkpt lat="47.04332" lon="-0.8388">
        <ele>123</ele>
        <time>2016-09-27T08:12:18.644Z</time>
      </trkpt>
      <trkpt lat="47.04327" lon="-0.83871">
        <ele>122</ele>
        <time>2016-09-27T08:12:23.644Z</time>
      </trkpt>
      <trkpt lat="47.04321" lon="-0.83863">
        <ele>122</ele>
        <time>2016-09-27T08:12:28.644Z</time>
      </trkpt>
      <trkpt lat="47.04318" lon="-0.83858">
        <ele>122</ele>
        <time>2016-09-27T08:12:31.644Z</time>
      </trkpt>
      <trkpt lat="47.0431" lon="-0.83844">
        <ele>122</ele>
        <time>2016-09-27T08:12:39.644Z</time>
      </trkpt>
      <trkpt lat="47.043" lon="-0.83833">
        <ele>121</ele>
        <time>2016-09-27T08:12:47.644Z</time>
      </trkpt>
      <trkpt lat="47.04294" lon="-0.83818">
        <ele>121</ele>
        <time>2016-09-27T08:12:55.644Z</time>
      </trkpt>
      <trkpt lat="47.04289" lon="-0.8381">
        <ele>121</ele>
        <time>2016-09-27T08:13:00.644Z</time>
      </trkpt>
      <trkpt lat="47.04286" lon="-0.83805">
        <ele>119</ele>
        <time>2016-09-27T08:13:03.644Z</time>
      </trkpt>
      <trkpt lat="47.04283" lon="-0.83799">
        <ele>119</ele>
        <time>2016-09-27T08:13:06.644Z</time>
      </trkpt>
      <trkpt lat="47.04278" lon="-0.8379">
        <ele>118.92412605932</ele>
        <time>2016-09-27T08:13:11.644Z</time>
      </trkpt>
      <trkpt lat="47.04275" lon="-0.83785">
        <ele>118</ele>
        <time>2016-09-27T08:13:14.644Z</time>
      </trkpt>
      <trkpt lat="47.04272" lon="-0.8378">
        <ele>118</ele>
        <time>2016-09-27T08:13:17.644Z</time>
      </trkpt>
      <trkpt lat="47.04271" lon="-0.83774">
        <ele>118</ele>
        <time>2016-09-27T08:13:20.644Z</time>
      </trkpt>
      <trkpt lat="47.04269" lon="-0.83768">
        <ele>117</ele>
        <time>2016-09-27T08:13:23.644Z</time>
      </trkpt>
      <trkpt lat="47.04267" lon="-0.83762">
        <ele>117</ele>
        <time>2016-09-27T08:13:26.644Z</time>
      </trkpt>
      <trkpt lat="47.04265" lon="-0.83758">
        <ele>117</ele>
        <time>2016-09-27T08:13:28.644Z</time>
      </trkpt>
      <trkpt lat="47.04261" lon="-0.83751">
        <ele>116</ele>
        <time>2016-09-27T08:13:32.644Z</time>
      </trkpt>
      <trkpt lat="47.04259" lon="-0.83747">
        <ele>116</ele>
        <time>2016-09-27T08:13:34.644Z</time>
      </trkpt>
      <trkpt lat="47.04256" lon="-0.8374">
        <ele>116</ele>
        <time>2016-09-27T08:13:37.644Z</time>
      </trkpt>
      <trkpt lat="47.04252" lon="-0.83736">
        <ele>116</ele>
        <time>2016-09-27T08:13:41.644Z</time>
      </trkpt>
      <trkpt lat="47.04248" lon="-0.83738">
        <ele>116</ele>
        <time>2016-09-27T08:13:44.644Z</time>
      </trkpt>
      <trkpt lat="47.04244" lon="-0.8374">
        <ele>116</ele>
        <time>2016-09-27T08:13:46.644Z</time>
      </trkpt>
      <trkpt lat="47.04241" lon="-0.83746">
        <ele>116</ele>
        <time>2016-09-27T08:13:50.644Z</time>
      </trkpt>
      <trkpt lat="47.04238" lon="-0.8375">
        <ele>115.57633230566</ele>
        <time>2016-09-27T08:13:53.644Z</time>
      </trkpt>
      <trkpt lat="47.04234" lon="-0.83755">
        <ele>115</ele>
        <time>2016-09-27T08:13:56.644Z</time>
      </trkpt>
      <trkpt lat="47.04231" lon="-0.8376">
        <ele>115</ele>
        <time>2016-09-27T08:13:58.644Z</time>
      </trkpt>
      <trkpt lat="47.04229" lon="-0.83764">
        <ele>115</ele>
        <time>2016-09-27T08:14:00.644Z</time>
      </trkpt>
      <trkpt lat="47.04224" lon="-0.8377">
        <ele>113</ele>
        <time>2016-09-27T08:14:04.644Z</time>
      </trkpt>
      <trkpt lat="47.04219" lon="-0.83786">
        <ele>113</ele>
        <time>2016-09-27T08:14:11.644Z</time>
      </trkpt>
      <trkpt lat="47.04215" lon="-0.83802">
        <ele>113</ele>
        <time>2016-09-27T08:14:19.644Z</time>
      </trkpt>
      <trkpt lat="47.04213" lon="-0.83808">
        <ele>113</ele>
        <time>2016-09-27T08:14:22.644Z</time>
      </trkpt>
      <trkpt lat="47.04212" lon="-0.83814">
        <ele>113</ele>
        <time>2016-09-27T08:14:25.644Z</time>
      </trkpt>
      <trkpt lat="47.0421" lon="-0.83823">
        <ele>113</ele>
        <time>2016-09-27T08:14:29.644Z</time>
      </trkpt>
      <trkpt lat="47.04209" lon="-0.83829">
        <ele>113.83477099449</ele>
        <time>2016-09-27T08:14:32.644Z</time>
      </trkpt>
      <trkpt lat="47.04206" lon="-0.83834">
        <ele>115</ele>
        <time>2016-09-27T08:14:35.644Z</time>
      </trkpt>
      <trkpt lat="47.04205" lon="-0.8384">
        <ele>115</ele>
        <time>2016-09-27T08:14:38.644Z</time>
      </trkpt>
      <trkpt lat="47.04202" lon="-0.83846">
        <ele>115</ele>
        <time>2016-09-27T08:14:41.644Z</time>
      </trkpt>
      <trkpt lat="47.04201" lon="-0.83852">
        <ele>115</ele>
        <time>2016-09-27T08:14:44.644Z</time>
      </trkpt>
      <trkpt lat="47.04199" lon="-0.83857">
        <ele>115</ele>
        <time>2016-09-27T08:14:47.644Z</time>
      </trkpt>
      <trkpt lat="47.04198" lon="-0.83864">
        <ele>115</ele>
        <time>2016-09-27T08:14:50.644Z</time>
      </trkpt>
      <trkpt lat="47.04197" lon="-0.83869">
        <ele>116</ele>
        <time>2016-09-27T08:14:53.644Z</time>
      </trkpt>
      <trkpt lat="47.04194" lon="-0.83874">
        <ele>116</ele>
        <time>2016-09-27T08:14:56.644Z</time>
      </trkpt>
      <trkpt lat="47.04193" lon="-0.83879">
        <ele>116</ele>
        <time>2016-09-27T08:14:59.644Z</time>
      </trkpt>
      <trkpt lat="47.04191" lon="-0.83884">
        <ele>116</ele>
        <time>2016-09-27T08:15:02.644Z</time>
      </trkpt>
      <trkpt lat="47.04188" lon="-0.8389">
        <ele>116</ele>
        <time>2016-09-27T08:15:05.644Z</time>
      </trkpt>
      <trkpt lat="47.04185" lon="-0.83895">
        <ele>116</ele>
        <time>2016-09-27T08:15:08.644Z</time>
      </trkpt>
      <trkpt lat="47.04181" lon="-0.83899">
        <ele>116.46400593928</ele>
        <time>2016-09-27T08:15:11.644Z</time>
      </trkpt>
      <trkpt lat="47.04178" lon="-0.83902">
        <ele>117</ele>
        <time>2016-09-27T08:15:14.644Z</time>
      </trkpt>
      <trkpt lat="47.04174" lon="-0.83907">
        <ele>117</ele>
        <time>2016-09-27T08:15:18.644Z</time>
      </trkpt>
      <trkpt lat="47.04171" lon="-0.8391">
        <ele>117</ele>
        <time>2016-09-27T08:15:21.644Z</time>
      </trkpt>
      <trkpt lat="47.04166" lon="-0.83912">
        <ele>117</ele>
        <time>2016-09-27T08:15:24.644Z</time>
      </trkpt>
      <trkpt lat="47.04162" lon="-0.83912">
        <ele>117</ele>
        <time>2016-09-27T08:15:27.644Z</time>
      </trkpt>
      <trkpt lat="47.04158" lon="-0.83913">
        <ele>117</ele>
        <time>2016-09-27T08:15:30.644Z</time>
      </trkpt>
      <trkpt lat="47.04154" lon="-0.83913">
        <ele>117</ele>
        <time>2016-09-27T08:15:33.644Z</time>
      </trkpt>
      <trkpt lat="47.0415" lon="-0.83911">
        <ele>117</ele>
        <time>2016-09-27T08:15:36.644Z</time>
      </trkpt>
      <trkpt lat="47.04147" lon="-0.83908">
        <ele>117</ele>
        <time>2016-09-27T08:15:39.644Z</time>
      </trkpt>
      <trkpt lat="47.04145" lon="-0.83902">
        <ele>116</ele>
        <time>2016-09-27T08:15:42.644Z</time>
      </trkpt>
      <trkpt lat="47.04145" lon="-0.83896">
        <ele>116</ele>
        <time>2016-09-27T08:15:45.644Z</time>
      </trkpt>
      <trkpt lat="47.04141" lon="-0.83894">
        <ele>116</ele>
        <time>2016-09-27T08:15:50.644Z</time>
      </trkpt>
      <trkpt lat="47.04137" lon="-0.83892">
        <ele>115</ele>
        <time>2016-09-27T08:15:53.644Z</time>
      </trkpt>
      <trkpt lat="47.04135" lon="-0.83886">
        <ele>115</ele>
        <time>2016-09-27T08:15:56.644Z</time>
      </trkpt>
      <trkpt lat="47.04134" lon="-0.8388">
        <ele>115</ele>
        <time>2016-09-27T08:15:59.644Z</time>
      </trkpt>
      <trkpt lat="47.04133" lon="-0.83874">
        <ele>114</ele>
        <time>2016-09-27T08:16:02.644Z</time>
      </trkpt>
      <trkpt lat="47.04132" lon="-0.83868">
        <ele>114</ele>
        <time>2016-09-27T08:16:05.644Z</time>
      </trkpt>
      <trkpt lat="47.04132" lon="-0.83861">
        <ele>114</ele>
        <time>2016-09-27T08:16:08.644Z</time>
      </trkpt>
      <trkpt lat="47.04131" lon="-0.83854">
        <ele>114</ele>
        <time>2016-09-27T08:16:11.644Z</time>
      </trkpt>
      <trkpt lat="47.04131" lon="-0.83848">
        <ele>114</ele>
        <time>2016-09-27T08:16:14.644Z</time>
      </trkpt>
      <trkpt lat="47.04131" lon="-0.83841">
        <ele>114</ele>
        <time>2016-09-27T08:16:17.644Z</time>
      </trkpt>
      <trkpt lat="47.04131" lon="-0.83834">
        <ele>113.53600593912</ele>
        <time>2016-09-27T08:16:20.644Z</time>
      </trkpt>
      <trkpt lat="47.0413" lon="-0.83828">
        <ele>113</ele>
        <time>2016-09-27T08:16:23.644Z</time>
      </trkpt>
      <trkpt lat="47.0413" lon="-0.83821">
        <ele>113</ele>
        <time>2016-09-27T08:16:26.644Z</time>
      </trkpt>
      <trkpt lat="47.0413" lon="-0.83814">
        <ele>113</ele>
        <time>2016-09-27T08:16:29.644Z</time>
      </trkpt>
      <trkpt lat="47.04129" lon="-0.83808">
        <ele>113</ele>
        <time>2016-09-27T08:16:31.644Z</time>
      </trkpt>
      <trkpt lat="47.04128" lon="-0.83801">
        <ele>113</ele>
        <time>2016-09-27T08:16:34.644Z</time>
      </trkpt>
      <trkpt lat="47.04127" lon="-0.83794">
        <ele>113</ele>
        <time>2016-09-27T08:16:37.644Z</time>
      </trkpt>
      <trkpt lat="47.04126" lon="-0.83789">
        <ele>112.540598426</ele>
        <time>2016-09-27T08:16:40.644Z</time>
      </trkpt>
      <trkpt lat="47.04124" lon="-0.83782">
        <ele>112</ele>
        <time>2016-09-27T08:16:43.644Z</time>
      </trkpt>
      <trkpt lat="47.04124" lon="-0.83775">
        <ele>112</ele>
        <time>2016-09-27T08:16:46.644Z</time>
      </trkpt>
      <trkpt lat="47.04123" lon="-0.83769">
        <ele>112</ele>
        <time>2016-09-27T08:16:49.644Z</time>
      </trkpt>
      <trkpt lat="47.04122" lon="-0.83762">
        <ele>108</ele>
        <time>2016-09-27T08:16:52.644Z</time>
      </trkpt>
      <trkpt lat="47.0412" lon="-0.83756">
        <ele>107.61608403955</ele>
        <time>2016-09-27T08:16:55.644Z</time>
      </trkpt>
      <trkpt lat="47.04117" lon="-0.83752">
        <ele>107</ele>
        <time>2016-09-27T08:16:58.644Z</time>
      </trkpt>
      <trkpt lat="47.04113" lon="-0.83744">
        <ele>107</ele>
        <time>2016-09-27T08:17:04.644Z</time>
      </trkpt>
      <trkpt lat="47.04117" lon="-0.83744">
        <ele>107</ele>
        <time>2016-09-27T08:17:08.644Z</time>
      </trkpt>
      <trkpt lat="47.04121" lon="-0.83744">
        <ele>107</ele>
        <time>2016-09-27T08:17:13.644Z</time>
      </trkpt>
      <trkpt lat="47.04126" lon="-0.83745">
        <ele>107</ele>
        <time>2016-09-27T08:17:16.644Z</time>
      </trkpt>
      <trkpt lat="47.0413" lon="-0.83746">
        <ele>107</ele>
        <time>2016-09-27T08:17:18.644Z</time>
      </trkpt>
      <trkpt lat="47.04134" lon="-0.83748">
        <ele>107.46399406088</ele>
        <time>2016-09-27T08:17:20.644Z</time>
      </trkpt>
      <trkpt lat="47.04138" lon="-0.83749">
        <ele>108</ele>
        <time>2016-09-27T08:17:22.644Z</time>
      </trkpt>
      <trkpt lat="47.04142" lon="-0.8375">
        <ele>108</ele>
        <time>2016-09-27T08:17:24.644Z</time>
      </trkpt>
      <trkpt lat="47.04146" lon="-0.83751">
        <ele>108</ele>
        <time>2016-09-27T08:17:26.644Z</time>
      </trkpt>
      <trkpt lat="47.0415" lon="-0.83751">
        <ele>108</ele>
        <time>2016-09-27T08:17:28.644Z</time>
      </trkpt>
      <trkpt lat="47.04154" lon="-0.83753">
        <ele>108</ele>
        <time>2016-09-27T08:17:31.644Z</time>
      </trkpt>
      <trkpt lat="47.04157" lon="-0.83755">
        <ele>108</ele>
        <time>2016-09-27T08:17:34.644Z</time>
      </trkpt>
      <trkpt lat="47.04162" lon="-0.83757">
        <ele>108</ele>
        <time>2016-09-27T08:17:37.644Z</time>
      </trkpt>
      <trkpt lat="47.04166" lon="-0.8376">
        <ele>107.53600593912</ele>
        <time>2016-09-27T08:17:40.644Z</time>
      </trkpt>
      <trkpt lat="47.0417" lon="-0.83761">
        <ele>107</ele>
        <time>2016-09-27T08:17:43.644Z</time>
      </trkpt>
      <trkpt lat="47.04174" lon="-0.83762">
        <ele>107</ele>
        <time>2016-09-27T08:17:45.644Z</time>
      </trkpt>
      <trkpt lat="47.04179" lon="-0.83764">
        <ele>107</ele>
        <time>2016-09-27T08:17:47.644Z</time>
      </trkpt>
      <trkpt lat="47.04183" lon="-0.83766">
        <ele>106.56422209946</ele>
        <time>2016-09-27T08:17:50.644Z</time>
      </trkpt>
      <trkpt lat="47.04189" lon="-0.83768">
        <ele>106</ele>
        <time>2016-09-27T08:17:54.644Z</time>
      </trkpt>
      <trkpt lat="47.04193" lon="-0.83769">
        <ele>106</ele>
        <time>2016-09-27T08:17:57.644Z</time>
      </trkpt>
      <trkpt lat="47.04198" lon="-0.8377">
        <ele>106</ele>
        <time>2016-09-27T08:18:00.644Z</time>
      </trkpt>
      <trkpt lat="47.04202" lon="-0.83771">
        <ele>107</ele>
        <time>2016-09-27T08:18:03.644Z</time>
      </trkpt>
      <trkpt lat="47.04207" lon="-0.8377">
        <ele>107</ele>
        <time>2016-09-27T08:18:06.644Z</time>
      </trkpt>
      <trkpt lat="47.04211" lon="-0.83769">
        <ele>107</ele>
        <time>2016-09-27T08:18:09.644Z</time>
      </trkpt>
      <trkpt lat="47.04214" lon="-0.83769">
        <ele>107.39092363636</ele>
        <time>2016-09-27T08:18:11.644Z</time>
      </trkpt>
      <trkpt lat="47.04218" lon="-0.83769">
        <ele>108</ele>
        <time>2016-09-27T08:18:13.644Z</time>
      </trkpt>
      <trkpt lat="47.04222" lon="-0.83768">
        <ele>108</ele>
        <time>2016-09-27T08:18:15.644Z</time>
      </trkpt>
      <trkpt lat="47.04226" lon="-0.83765">
        <ele>108</ele>
        <time>2016-09-27T08:18:18.644Z</time>
      </trkpt>
      <trkpt lat="47.0423" lon="-0.83762">
        <ele>110.32002969638</ele>
        <time>2016-09-27T08:18:21.644Z</time>
      </trkpt>
      <trkpt lat="47.04234" lon="-0.83757">
        <ele>113</ele>
        <time>2016-09-27T08:18:24.644Z</time>
      </trkpt>
      <trkpt lat="47.04237" lon="-0.83752">
        <ele>113</ele>
        <time>2016-09-27T08:18:27.644Z</time>
      </trkpt>
      <trkpt lat="47.04245" lon="-0.83739">
        <ele>115</ele>
        <time>2016-09-27T08:18:36.644Z</time>
      </trkpt>
      <trkpt lat="47.04249" lon="-0.83742">
        <ele>115</ele>
        <time>2016-09-27T08:18:40.644Z</time>
      </trkpt>
      <trkpt lat="47.04253" lon="-0.83747">
        <ele>116</ele>
        <time>2016-09-27T08:18:44.644Z</time>
      </trkpt>
      <trkpt lat="47.04257" lon="-0.83751">
        <ele>116</ele>
        <time>2016-09-27T08:18:48.644Z</time>
      </trkpt>
      <trkpt lat="47.04263" lon="-0.83765">
        <ele>116</ele>
        <time>2016-09-27T08:18:56.644Z</time>
      </trkpt>
      <trkpt lat="47.04266" lon="-0.83773">
        <ele>116</ele>
        <time>2016-09-27T08:18:59.644Z</time>
      </trkpt>
      <trkpt lat="47.0427" lon="-0.8378">
        <ele>117</ele>
        <time>2016-09-27T08:19:03.644Z</time>
      </trkpt>
      <trkpt lat="47.04273" lon="-0.83786">
        <ele>117</ele>
        <time>2016-09-27T08:19:07.644Z</time>
      </trkpt>
      <trkpt lat="47.0428" lon="-0.83799">
        <ele>117</ele>
        <time>2016-09-27T08:19:13.644Z</time>
      </trkpt>
      <trkpt lat="47.04283" lon="-0.83805">
        <ele>117</ele>
        <time>2016-09-27T08:19:16.644Z</time>
      </trkpt>
      <trkpt lat="47.04291" lon="-0.83817">
        <ele>118</ele>
        <time>2016-09-27T08:19:23.644Z</time>
      </trkpt>
      <trkpt lat="47.043" lon="-0.83828">
        <ele>118</ele>
        <time>2016-09-27T08:19:30.644Z</time>
      </trkpt>
      <trkpt lat="47.04309" lon="-0.83841">
        <ele>119</ele>
        <time>2016-09-27T08:19:38.644Z</time>
      </trkpt>
      <trkpt lat="47.04318" lon="-0.83852">
        <ele>121</ele>
        <time>2016-09-27T08:19:45.644Z</time>
      </trkpt>
      <trkpt lat="47.04325" lon="-0.83865">
        <ele>121.44615384615</ele>
        <time>2016-09-27T08:19:52.644Z</time>
      </trkpt>
      <trkpt lat="47.04333" lon="-0.83878">
        <ele>122</ele>
        <time>2016-09-27T08:20:01.644Z</time>
      </trkpt>
      <trkpt lat="47.0434" lon="-0.8389">
        <ele>122</ele>
        <time>2016-09-27T08:20:09.644Z</time>
      </trkpt>
      <trkpt lat="47.0435" lon="-0.83902">
        <ele>122</ele>
        <time>2016-09-27T08:20:16.644Z</time>
      </trkpt>
      <trkpt lat="47.04359" lon="-0.83913">
        <ele>123</ele>
        <time>2016-09-27T08:20:23.644Z</time>
      </trkpt>
      <trkpt lat="47.04368" lon="-0.83924">
        <ele>123</ele>
        <time>2016-09-27T08:20:31.644Z</time>
      </trkpt>
      <trkpt lat="47.04375" lon="-0.83936">
        <ele>123</ele>
        <time>2016-09-27T08:20:38.644Z</time>
      </trkpt>
      <trkpt lat="47.04379" lon="-0.83941">
        <ele>123</ele>
        <time>2016-09-27T08:20:41.644Z</time>
      </trkpt>
      <trkpt lat="47.04381" lon="-0.83945">
        <ele>123</ele>
        <time>2016-09-27T08:20:43.644Z</time>
      </trkpt>
      <trkpt lat="47.0439" lon="-0.83954">
        <ele>123.45048403733</ele>
        <time>2016-09-27T08:20:50.644Z</time>
      </trkpt>
      <trkpt lat="47.044" lon="-0.83963">
        <ele>124</ele>
        <time>2016-09-27T08:20:57.644Z</time>
      </trkpt>
      <trkpt lat="47.04405" lon="-0.83974">
        <ele>125</ele>
        <time>2016-09-27T08:21:02.644Z</time>
      </trkpt>
      <trkpt lat="47.04409" lon="-0.83978">
        <ele>125</ele>
        <time>2016-09-27T08:21:05.644Z</time>
      </trkpt>
      <trkpt lat="47.04413" lon="-0.8398">
        <ele>125</ele>
        <time>2016-09-27T08:21:08.644Z</time>
      </trkpt>
      <trkpt lat="47.04423" lon="-0.83971">
        <ele>125</ele>
        <time>2016-09-27T08:21:16.644Z</time>
      </trkpt>
      <trkpt lat="47.04434" lon="-0.83963">
        <ele>125</ele>
        <time>2016-09-27T08:21:23.644Z</time>
      </trkpt>
      <trkpt lat="47.04444" lon="-0.83956">
        <ele>125.24505579693</ele>
        <time>2016-09-27T08:21:30.644Z</time>
      </trkpt>
      <trkpt lat="47.04456" lon="-0.8395">
        <ele>126</ele>
        <time>2016-09-27T08:21:37.644Z</time>
      </trkpt>
      <trkpt lat="47.04467" lon="-0.83944">
        <ele>127</ele>
        <time>2016-09-27T08:21:44.644Z</time>
      </trkpt>
      <trkpt lat="47.04478" lon="-0.83936">
        <ele>127</ele>
        <time>2016-09-27T08:21:51.644Z</time>
      </trkpt>
      <trkpt lat="47.04489" lon="-0.8393">
        <ele>127</ele>
        <time>2016-09-27T08:21:58.644Z</time>
      </trkpt>
      <trkpt lat="47.04499" lon="-0.83921">
        <ele>128</ele>
        <time>2016-09-27T08:22:05.644Z</time>
      </trkpt>
      <trkpt lat="47.04509" lon="-0.83913">
        <ele>128</ele>
        <time>2016-09-27T08:22:13.644Z</time>
      </trkpt>
      <trkpt lat="47.04519" lon="-0.83906">
        <ele>128</ele>
        <time>2016-09-27T08:22:20.644Z</time>
      </trkpt>
      <trkpt lat="47.04531" lon="-0.83898">
        <ele>128</ele>
        <time>2016-09-27T08:22:28.644Z</time>
      </trkpt>
      <trkpt lat="47.04541" lon="-0.83889">
        <ele>128</ele>
        <time>2016-09-27T08:22:35.644Z</time>
      </trkpt>
      <trkpt lat="47.04551" lon="-0.83881">
        <ele>128</ele>
        <time>2016-09-27T08:22:42.644Z</time>
      </trkpt>
      <trkpt lat="47.04561" lon="-0.83872">
        <ele>128.86728712587</ele>
        <time>2016-09-27T08:22:50.644Z</time>
      </trkpt>
      <trkpt lat="47.04573" lon="-0.83866">
        <ele>130</ele>
        <time>2016-09-27T08:22:56.644Z</time>
      </trkpt>
      <trkpt lat="47.04583" lon="-0.83859">
        <ele>129</ele>
        <time>2016-09-27T08:23:03.644Z</time>
      </trkpt>
      <trkpt lat="47.04593" lon="-0.83849">
        <ele>130</ele>
        <time>2016-09-27T08:23:12.644Z</time>
      </trkpt>
      <trkpt lat="47.04603" lon="-0.83842">
        <ele>130</ele>
        <time>2016-09-27T08:23:19.644Z</time>
      </trkpt>
      <trkpt lat="47.04612" lon="-0.83838">
        <ele>130</ele>
        <time>2016-09-27T08:23:24.644Z</time>
      </trkpt>
      <trkpt lat="47.04616" lon="-0.83835">
        <ele>130</ele>
        <time>2016-09-27T08:23:27.644Z</time>
      </trkpt>
      <trkpt lat="47.04627" lon="-0.83827">
        <ele>130</ele>
        <time>2016-09-27T08:23:34.644Z</time>
      </trkpt>
      <trkpt lat="47.04637" lon="-0.8382">
        <ele>130</ele>
        <time>2016-09-27T08:23:41.644Z</time>
      </trkpt>
      <trkpt lat="47.04649" lon="-0.83813">
        <ele>130</ele>
        <time>2016-09-27T08:23:48.644Z</time>
      </trkpt>
      <trkpt lat="47.04657" lon="-0.83808">
        <ele>130</ele>
        <time>2016-09-27T08:23:53.644Z</time>
      </trkpt>
      <trkpt lat="47.04667" lon="-0.838">
        <ele>130</ele>
        <time>2016-09-27T08:24:01.644Z</time>
      </trkpt>
      <trkpt lat="47.04679" lon="-0.83793">
        <ele>130</ele>
        <time>2016-09-27T08:24:09.644Z</time>
      </trkpt>
      <trkpt lat="47.04682" lon="-0.83791">
        <ele>130</ele>
        <time>2016-09-27T08:24:11.644Z</time>
      </trkpt>
      <trkpt lat="47.04694" lon="-0.83784">
        <ele>130</ele>
        <time>2016-09-27T08:24:19.644Z</time>
      </trkpt>
      <trkpt lat="47.04697" lon="-0.83782">
        <ele>132</ele>
        <time>2016-09-27T08:24:21.644Z</time>
      </trkpt>
      <trkpt lat="47.04703" lon="-0.83779">
        <ele>132</ele>
        <time>2016-09-27T08:24:24.644Z</time>
      </trkpt>
      <trkpt lat="47.04706" lon="-0.83777">
        <ele>132</ele>
        <time>2016-09-27T08:24:27.644Z</time>
      </trkpt>
      <trkpt lat="47.0471" lon="-0.83775">
        <ele>132</ele>
        <time>2016-09-27T08:24:30.644Z</time>
      </trkpt>
      <trkpt lat="47.04714" lon="-0.83772">
        <ele>131</ele>
        <time>2016-09-27T08:24:33.644Z</time>
      </trkpt>
      <trkpt lat="47.04726" lon="-0.83766">
        <ele>130</ele>
        <time>2016-09-27T08:24:41.644Z</time>
      </trkpt>
      <trkpt lat="47.04737" lon="-0.8376">
        <ele>130</ele>
        <time>2016-09-27T08:24:48.644Z</time>
      </trkpt>
      <trkpt lat="47.04748" lon="-0.83753">
        <ele>130</ele>
        <time>2016-09-27T08:24:56.644Z</time>
      </trkpt>
      <trkpt lat="47.04759" lon="-0.83746">
        <ele>130</ele>
        <time>2016-09-27T08:25:04.644Z</time>
      </trkpt>
      <trkpt lat="47.04769" lon="-0.83741">
        <ele>130.46399406088</ele>
        <time>2016-09-27T08:25:10.644Z</time>
      </trkpt>
      <trkpt lat="47.0478" lon="-0.83734">
        <ele>131</ele>
        <time>2016-09-27T08:25:17.644Z</time>
      </trkpt>
      <trkpt lat="47.04791" lon="-0.83727">
        <ele>131</ele>
        <time>2016-09-27T08:25:25.644Z</time>
      </trkpt>
      <trkpt lat="47.04797" lon="-0.83723">
        <ele>131</ele>
        <time>2016-09-27T08:25:29.644Z</time>
      </trkpt>
      <trkpt lat="47.04802" lon="-0.8372">
        <ele>131</ele>
        <time>2016-09-27T08:25:32.644Z</time>
      </trkpt>
      <trkpt lat="47.04807" lon="-0.83718">
        <ele>131</ele>
        <time>2016-09-27T08:25:35.644Z</time>
      </trkpt>
      <trkpt lat="47.04818" lon="-0.8371">
        <ele>131</ele>
        <time>2016-09-27T08:25:43.644Z</time>
      </trkpt>
      <trkpt lat="47.04829" lon="-0.83706">
        <ele>131</ele>
        <time>2016-09-27T08:25:49.644Z</time>
      </trkpt>
      <trkpt lat="47.0484" lon="-0.837">
        <ele>131</ele>
        <time>2016-09-27T08:25:56.644Z</time>
      </trkpt>
      <trkpt lat="47.04851" lon="-0.83694">
        <ele>131</ele>
        <time>2016-09-27T08:26:03.644Z</time>
      </trkpt>
      <trkpt lat="47.04861" lon="-0.83687">
        <ele>131</ele>
        <time>2016-09-27T08:26:10.644Z</time>
      </trkpt>
      <trkpt lat="47.0487" lon="-0.83678">
        <ele>131</ele>
        <time>2016-09-27T08:26:16.644Z</time>
      </trkpt>
      <trkpt lat="47.04876" lon="-0.83665">
        <ele>132</ele>
        <time>2016-09-27T08:26:22.644Z</time>
      </trkpt>
      <trkpt lat="47.04881" lon="-0.83647">
        <ele>132</ele>
        <time>2016-09-27T08:26:29.644Z</time>
      </trkpt>
      <trkpt lat="47.0488" lon="-0.8363">
        <ele>132</ele>
        <time>2016-09-27T08:26:35.644Z</time>
      </trkpt>
      <trkpt lat="47.04876" lon="-0.83614">
        <ele>132</ele>
        <time>2016-09-27T08:26:42.644Z</time>
      </trkpt>
      <trkpt lat="47.0487" lon="-0.83599">
        <ele>132</ele>
        <time>2016-09-27T08:26:49.644Z</time>
      </trkpt>
      <trkpt lat="47.04866" lon="-0.83582">
        <ele>132</ele>
        <time>2016-09-27T08:26:56.644Z</time>
      </trkpt>
      <trkpt lat="47.04864" lon="-0.83565">
        <ele>131</ele>
        <time>2016-09-27T08:27:04.644Z</time>
      </trkpt>
      <trkpt lat="47.04873" lon="-0.83553">
        <ele>131</ele>
        <time>2016-09-27T08:27:13.644Z</time>
      </trkpt>
      <trkpt lat="47.04882" lon="-0.83545">
        <ele>131</ele>
        <time>2016-09-27T08:27:19.644Z</time>
      </trkpt>
      <trkpt lat="47.04886" lon="-0.83542">
        <ele>131</ele>
        <time>2016-09-27T08:27:22.644Z</time>
      </trkpt>
      <trkpt lat="47.04897" lon="-0.83536">
        <ele>131.46400593928</ele>
        <time>2016-09-27T08:27:31.644Z</time>
      </trkpt>
      <trkpt lat="47.04909" lon="-0.83529">
        <ele>132</ele>
        <time>2016-09-27T08:27:38.644Z</time>
      </trkpt>
      <trkpt lat="47.04919" lon="-0.8352">
        <ele>132</ele>
        <time>2016-09-27T08:27:45.644Z</time>
      </trkpt>
      <trkpt lat="47.04931" lon="-0.83511">
        <ele>132</ele>
        <time>2016-09-27T08:27:49.644Z</time>
      </trkpt>
      <trkpt lat="47.0494" lon="-0.83502">
        <ele>133</ele>
        <time>2016-09-27T08:27:55.644Z</time>
      </trkpt>
      <trkpt lat="47.04951" lon="-0.83496">
        <ele>133</ele>
        <time>2016-09-27T08:28:03.644Z</time>
      </trkpt>
      <trkpt lat="47.04962" lon="-0.83487">
        <ele>133</ele>
        <time>2016-09-27T08:28:13.644Z</time>
      </trkpt>
      <trkpt lat="47.04972" lon="-0.83479">
        <ele>134</ele>
        <time>2016-09-27T08:28:21.644Z</time>
      </trkpt>
      <trkpt lat="47.04983" lon="-0.83473">
        <ele>134</ele>
        <time>2016-09-27T08:28:29.644Z</time>
      </trkpt>
      <trkpt lat="47.04993" lon="-0.83466">
        <ele>134</ele>
        <time>2016-09-27T08:28:36.644Z</time>
      </trkpt>
      <trkpt lat="47.05004" lon="-0.83461">
        <ele>135</ele>
        <time>2016-09-27T08:28:45.644Z</time>
      </trkpt>
      <trkpt lat="47.05016" lon="-0.83455">
        <ele>135</ele>
        <time>2016-09-27T08:28:53.644Z</time>
      </trkpt>
      <trkpt lat="47.05026" lon="-0.83446">
        <ele>135</ele>
        <time>2016-09-27T08:29:00.644Z</time>
      </trkpt>
      <trkpt lat="47.05038" lon="-0.83439">
        <ele>135</ele>
        <time>2016-09-27T08:29:08.644Z</time>
      </trkpt>
      <trkpt lat="47.05047" lon="-0.8343">
        <ele>136</ele>
        <time>2016-09-27T08:29:16.644Z</time>
      </trkpt>
      <trkpt lat="47.05058" lon="-0.83426">
        <ele>136</ele>
        <time>2016-09-27T08:29:23.644Z</time>
      </trkpt>
      <trkpt lat="47.05069" lon="-0.83421">
        <ele>136</ele>
        <time>2016-09-27T08:29:29.644Z</time>
      </trkpt>
      <trkpt lat="47.0508" lon="-0.83415">
        <ele>136</ele>
        <time>2016-09-27T08:29:37.644Z</time>
      </trkpt>
      <trkpt lat="47.05088" lon="-0.83404">
        <ele>136</ele>
        <time>2016-09-27T08:29:44.644Z</time>
      </trkpt>
      <trkpt lat="47.05096" lon="-0.83395">
        <ele>136</ele>
        <time>2016-09-27T08:29:50.644Z</time>
      </trkpt>
      <trkpt lat="47.05106" lon="-0.83386">
        <ele>136</ele>
        <time>2016-09-27T08:29:56.644Z</time>
      </trkpt>
      <trkpt lat="47.05113" lon="-0.83379">
        <ele>136</ele>
        <time>2016-09-27T08:30:03.644Z</time>
      </trkpt>
      <trkpt lat="47.05123" lon="-0.83372">
        <ele>137</ele>
        <time>2016-09-27T08:30:12.644Z</time>
      </trkpt>
      <trkpt lat="47.05131" lon="-0.83362">
        <ele>137</ele>
        <time>2016-09-27T08:30:18.644Z</time>
      </trkpt>
      <trkpt lat="47.05139" lon="-0.83348">
        <ele>137</ele>
        <time>2016-09-27T08:30:27.644Z</time>
      </trkpt>
      <trkpt lat="47.05147" lon="-0.83335">
        <ele>136</ele>
        <time>2016-09-27T08:30:34.644Z</time>
      </trkpt>
      <trkpt lat="47.05155" lon="-0.83322">
        <ele>136</ele>
        <time>2016-09-27T08:30:41.644Z</time>
      </trkpt>
      <trkpt lat="47.05162" lon="-0.83309">
        <ele>136.40701982888</ele>
        <time>2016-09-27T08:30:51.644Z</time>
      </trkpt>
      <trkpt lat="47.05172" lon="-0.83299">
        <ele>137</ele>
        <time>2016-09-27T08:30:57.644Z</time>
      </trkpt>
      <trkpt lat="47.05181" lon="-0.83288">
        <ele>137</ele>
        <time>2016-09-27T08:31:05.644Z</time>
      </trkpt>
      <trkpt lat="47.05188" lon="-0.83275">
        <ele>137</ele>
        <time>2016-09-27T08:31:12.644Z</time>
      </trkpt>
      <trkpt lat="47.05199" lon="-0.83265">
        <ele>137</ele>
        <time>2016-09-27T08:31:21.644Z</time>
      </trkpt>
      <trkpt lat="47.0521" lon="-0.83257">
        <ele>137</ele>
        <time>2016-09-27T08:31:28.644Z</time>
      </trkpt>
      <trkpt lat="47.0522" lon="-0.83249">
        <ele>137</ele>
        <time>2016-09-27T08:31:34.644Z</time>
      </trkpt>
      <trkpt lat="47.0523" lon="-0.83241">
        <ele>138</ele>
        <time>2016-09-27T08:31:41.644Z</time>
      </trkpt>
      <trkpt lat="47.0524" lon="-0.83231">
        <ele>138</ele>
        <time>2016-09-27T08:31:48.644Z</time>
      </trkpt>
      <trkpt lat="47.05249" lon="-0.83224">
        <ele>138</ele>
        <time>2016-09-27T08:31:54.644Z</time>
      </trkpt>
      <trkpt lat="47.0526" lon="-0.83214">
        <ele>138</ele>
        <time>2016-09-27T08:32:02.644Z</time>
      </trkpt>
      <trkpt lat="47.05269" lon="-0.83203">
        <ele>138</ele>
        <time>2016-09-27T08:32:08.644Z</time>
      </trkpt>
      <trkpt lat="47.05275" lon="-0.83189">
        <ele>138</ele>
        <time>2016-09-27T08:32:15.644Z</time>
      </trkpt>
      <trkpt lat="47.05282" lon="-0.83176">
        <ele>138</ele>
        <time>2016-09-27T08:32:22.644Z</time>
      </trkpt>
      <trkpt lat="47.0529" lon="-0.83161">
        <ele>138</ele>
        <time>2016-09-27T08:32:29.644Z</time>
      </trkpt>
      <trkpt lat="47.05296" lon="-0.83148">
        <ele>138</ele>
        <time>2016-09-27T08:32:36.644Z</time>
      </trkpt>
      <trkpt lat="47.05298" lon="-0.83131">
        <ele>138</ele>
        <time>2016-09-27T08:32:44.644Z</time>
      </trkpt>
      <trkpt lat="47.05302" lon="-0.83115">
        <ele>138</ele>
        <time>2016-09-27T08:32:51.644Z</time>
      </trkpt>
      <trkpt lat="47.05306" lon="-0.83098">
        <ele>138</ele>
        <time>2016-09-27T08:32:58.644Z</time>
      </trkpt>
      <trkpt lat="47.05307" lon="-0.83081">
        <ele>139</ele>
        <time>2016-09-27T08:33:06.644Z</time>
      </trkpt>
      <trkpt lat="47.05317" lon="-0.83076">
        <ele>139</ele>
        <time>2016-09-27T08:33:18.644Z</time>
      </trkpt>
      <trkpt lat="47.05328" lon="-0.83069">
        <ele>139</ele>
        <time>2016-09-27T08:33:24.644Z</time>
      </trkpt>
      <trkpt lat="47.05331" lon="-0.83052">
        <ele>139</ele>
        <time>2016-09-27T08:33:32.644Z</time>
      </trkpt>
      <trkpt lat="47.05324" lon="-0.83038">
        <ele>139</ele>
        <time>2016-09-27T08:33:38.644Z</time>
      </trkpt>
      <trkpt lat="47.05317" lon="-0.83025">
        <ele>140</ele>
        <time>2016-09-27T08:33:45.644Z</time>
      </trkpt>
      <trkpt lat="47.05314" lon="-0.83009">
        <ele>142</ele>
        <time>2016-09-27T08:33:52.644Z</time>
      </trkpt>
      <trkpt lat="47.05313" lon="-0.83002">
        <ele>142</ele>
        <time>2016-09-27T08:33:55.644Z</time>
      </trkpt>
      <trkpt lat="47.05314" lon="-0.82995">
        <ele>142</ele>
        <time>2016-09-27T08:33:58.644Z</time>
      </trkpt>
      <trkpt lat="47.05316" lon="-0.82989">
        <ele>142</ele>
        <time>2016-09-27T08:34:01.644Z</time>
      </trkpt>
      <trkpt lat="47.05323" lon="-0.82976">
        <ele>142</ele>
        <time>2016-09-27T08:34:10.644Z</time>
      </trkpt>
      <trkpt lat="47.05331" lon="-0.82966">
        <ele>141.65001142857</ele>
        <time>2016-09-27T08:34:20.644Z</time>
      </trkpt>
      <trkpt lat="47.05339" lon="-0.82954">
        <ele>141</ele>
        <time>2016-09-27T08:34:28.644Z</time>
      </trkpt>
      <trkpt lat="47.0535" lon="-0.82944">
        <ele>142</ele>
        <time>2016-09-27T08:34:37.644Z</time>
      </trkpt>
      <trkpt lat="47.0536" lon="-0.82937">
        <ele>142</ele>
        <time>2016-09-27T08:34:43.644Z</time>
      </trkpt>
      <trkpt lat="47.05371" lon="-0.82929">
        <ele>142</ele>
        <time>2016-09-27T08:34:48.644Z</time>
      </trkpt>
      <trkpt lat="47.05381" lon="-0.82924">
        <ele>142</ele>
        <time>2016-09-27T08:34:54.644Z</time>
      </trkpt>
      <trkpt lat="47.05393" lon="-0.8292">
        <ele>142</ele>
        <time>2016-09-27T08:35:01.644Z</time>
      </trkpt>
      <trkpt lat="47.05404" lon="-0.82917">
        <ele>142</ele>
        <time>2016-09-27T08:35:09.644Z</time>
      </trkpt>
      <trkpt lat="47.05416" lon="-0.82912">
        <ele>142</ele>
        <time>2016-09-27T08:35:16.644Z</time>
      </trkpt>
      <trkpt lat="47.05427" lon="-0.82906">
        <ele>142</ele>
        <time>2016-09-27T08:35:24.644Z</time>
      </trkpt>
      <trkpt lat="47.05438" lon="-0.829">
        <ele>142</ele>
        <time>2016-09-27T08:35:31.644Z</time>
      </trkpt>
      <trkpt lat="47.0545" lon="-0.82894">
        <ele>142</ele>
        <time>2016-09-27T08:35:38.644Z</time>
      </trkpt>
      <trkpt lat="47.05461" lon="-0.82888">
        <ele>142</ele>
        <time>2016-09-27T08:35:45.644Z</time>
      </trkpt>
      <trkpt lat="47.05468" lon="-0.82874">
        <ele>142</ele>
        <time>2016-09-27T08:35:53.644Z</time>
      </trkpt>
      <trkpt lat="47.05471" lon="-0.82871">
        <ele>142</ele>
        <time>2016-09-27T08:35:56.644Z</time>
      </trkpt>
      <trkpt lat="47.05476" lon="-0.82869">
        <ele>142</ele>
        <time>2016-09-27T08:36:00.644Z</time>
      </trkpt>
      <trkpt lat="47.0548" lon="-0.82868">
        <ele>143</ele>
        <time>2016-09-27T08:36:03.644Z</time>
      </trkpt>
      <trkpt lat="47.05484" lon="-0.82867">
        <ele>143</ele>
        <time>2016-09-27T08:36:05.644Z</time>
      </trkpt>
      <trkpt lat="47.05494" lon="-0.82861">
        <ele>143</ele>
        <time>2016-09-27T08:36:11.644Z</time>
      </trkpt>
      <trkpt lat="47.05505" lon="-0.82852">
        <ele>143</ele>
        <time>2016-09-27T08:36:19.644Z</time>
      </trkpt>
      <trkpt lat="47.05515" lon="-0.82847">
        <ele>143</ele>
        <time>2016-09-27T08:36:27.644Z</time>
      </trkpt>
      <trkpt lat="47.05527" lon="-0.82842">
        <ele>143</ele>
        <time>2016-09-27T08:36:34.644Z</time>
      </trkpt>
      <trkpt lat="47.05534" lon="-0.82839">
        <ele>143</ele>
        <time>2016-09-27T08:36:39.644Z</time>
      </trkpt>
      <trkpt lat="47.05539" lon="-0.82837">
        <ele>143</ele>
        <time>2016-09-27T08:36:42.644Z</time>
      </trkpt>
      <trkpt lat="47.05543" lon="-0.82835">
        <ele>143</ele>
        <time>2016-09-27T08:36:44.644Z</time>
      </trkpt>
      <trkpt lat="47.05547" lon="-0.82834">
        <ele>143</ele>
        <time>2016-09-27T08:36:47.644Z</time>
      </trkpt>
      <trkpt lat="47.05551" lon="-0.82832">
        <ele>143</ele>
        <time>2016-09-27T08:36:50.644Z</time>
      </trkpt>
      <trkpt lat="47.05555" lon="-0.82829">
        <ele>143</ele>
        <time>2016-09-27T08:36:54.644Z</time>
      </trkpt>
      <trkpt lat="47.05558" lon="-0.82828">
        <ele>143</ele>
        <time>2016-09-27T08:36:57.644Z</time>
      </trkpt>
      <trkpt lat="47.05562" lon="-0.82826">
        <ele>143.40443445735</ele>
        <time>2016-09-27T08:37:00.644Z</time>
      </trkpt>
      <trkpt lat="47.05565" lon="-0.82823">
        <ele>144</ele>
        <time>2016-09-27T08:37:03.644Z</time>
      </trkpt>
      <trkpt lat="47.05569" lon="-0.8282">
        <ele>144</ele>
        <time>2016-09-27T08:37:06.644Z</time>
      </trkpt>
      <trkpt lat="47.05573" lon="-0.82817">
        <ele>144</ele>
        <time>2016-09-27T08:37:09.644Z</time>
      </trkpt>
      <trkpt lat="47.05578" lon="-0.82815">
        <ele>144</ele>
        <time>2016-09-27T08:37:12.644Z</time>
      </trkpt>
      <trkpt lat="47.05582" lon="-0.82812">
        <ele>144</ele>
        <time>2016-09-27T08:37:15.644Z</time>
      </trkpt>
      <trkpt lat="47.05585" lon="-0.82809">
        <ele>144</ele>
        <time>2016-09-27T08:37:18.644Z</time>
      </trkpt>
      <trkpt lat="47.0559" lon="-0.82806">
        <ele>146</ele>
        <time>2016-09-27T08:37:21.644Z</time>
      </trkpt>
      <trkpt lat="47.05595" lon="-0.82803">
        <ele>146</ele>
        <time>2016-09-27T08:37:24.644Z</time>
      </trkpt>
      <trkpt lat="47.05598" lon="-0.82801">
        <ele>146</ele>
        <time>2016-09-27T08:37:26.644Z</time>
      </trkpt>
      <trkpt lat="47.05603" lon="-0.82798">
        <ele>146.45048403733</ele>
        <time>2016-09-27T08:37:30.644Z</time>
      </trkpt>
      <trkpt lat="47.05607" lon="-0.82795">
        <ele>147</ele>
        <time>2016-09-27T08:37:34.644Z</time>
      </trkpt>
      <trkpt lat="47.05611" lon="-0.82792">
        <ele>147</ele>
        <time>2016-09-27T08:37:37.644Z</time>
      </trkpt>
      <trkpt lat="47.05618" lon="-0.82788">
        <ele>147</ele>
        <time>2016-09-27T08:37:41.644Z</time>
      </trkpt>
      <trkpt lat="47.05621" lon="-0.82785">
        <ele>147</ele>
        <time>2016-09-27T08:37:43.644Z</time>
      </trkpt>
      <trkpt lat="47.05632" lon="-0.82777">
        <ele>147</ele>
        <time>2016-09-27T08:37:52.644Z</time>
      </trkpt>
      <trkpt lat="47.05644" lon="-0.82774">
        <ele>147</ele>
        <time>2016-09-27T08:38:00.644Z</time>
      </trkpt>
      <trkpt lat="47.05655" lon="-0.82769">
        <ele>147</ele>
        <time>2016-09-27T08:38:07.644Z</time>
      </trkpt>
      <trkpt lat="47.05666" lon="-0.82763">
        <ele>148</ele>
        <time>2016-09-27T08:38:14.644Z</time>
      </trkpt>
      <trkpt lat="47.05677" lon="-0.82759">
        <ele>149</ele>
        <time>2016-09-27T08:38:21.644Z</time>
      </trkpt>
      <trkpt lat="47.05689" lon="-0.82755">
        <ele>149.46399406088</ele>
        <time>2016-09-27T08:38:30.644Z</time>
      </trkpt>
      <trkpt lat="47.05697" lon="-0.82749">
        <ele>150</ele>
        <time>2016-09-27T08:38:37.644Z</time>
      </trkpt>
      <trkpt lat="47.05708" lon="-0.82744">
        <ele>150</ele>
        <time>2016-09-27T08:38:45.644Z</time>
      </trkpt>
      <trkpt lat="47.05718" lon="-0.82733">
        <ele>150</ele>
        <time>2016-09-27T08:38:53.644Z</time>
      </trkpt>
      <trkpt lat="47.05729" lon="-0.82729">
        <ele>150.2000076419</ele>
        <time>2016-09-27T08:39:01.644Z</time>
      </trkpt>
      <trkpt lat="47.05741" lon="-0.82723">
        <ele>151</ele>
        <time>2016-09-27T08:39:08.644Z</time>
      </trkpt>
      <trkpt lat="47.05751" lon="-0.82719">
        <ele>151</ele>
        <time>2016-09-27T08:39:15.644Z</time>
      </trkpt>
      <trkpt lat="47.05761" lon="-0.8271">
        <ele>151</ele>
        <time>2016-09-27T08:39:22.644Z</time>
      </trkpt>
      <trkpt lat="47.05767" lon="-0.82697">
        <ele>151</ele>
        <time>2016-09-27T08:39:30.644Z</time>
      </trkpt>
      <trkpt lat="47.05772" lon="-0.82682">
        <ele>151</ele>
        <time>2016-09-27T08:39:39.644Z</time>
      </trkpt>
      <trkpt lat="47.05777" lon="-0.82666">
        <ele>152</ele>
        <time>2016-09-27T08:39:47.644Z</time>
      </trkpt>
      <trkpt lat="47.05783" lon="-0.8265">
        <ele>152</ele>
        <time>2016-09-27T08:39:55.644Z</time>
      </trkpt>
      <trkpt lat="47.0579" lon="-0.82636">
        <ele>152</ele>
        <time>2016-09-27T08:40:00.644Z</time>
      </trkpt>
      <trkpt lat="47.05798" lon="-0.82622">
        <ele>153</ele>
        <time>2016-09-27T08:40:06.644Z</time>
      </trkpt>
      <trkpt lat="47.05799" lon="-0.82606">
        <ele>153</ele>
        <time>2016-09-27T08:40:14.644Z</time>
      </trkpt>
      <trkpt lat="47.05802" lon="-0.82589">
        <ele>153</ele>
        <time>2016-09-27T08:40:21.644Z</time>
      </trkpt>
      <trkpt lat="47.05803" lon="-0.82571">
        <ele>153</ele>
        <time>2016-09-27T08:40:29.644Z</time>
      </trkpt>
      <trkpt lat="47.05809" lon="-0.82556">
        <ele>153</ele>
        <time>2016-09-27T08:40:38.644Z</time>
      </trkpt>
      <trkpt lat="47.05814" lon="-0.82542">
        <ele>153</ele>
        <time>2016-09-27T08:40:45.644Z</time>
      </trkpt>
      <trkpt lat="47.05818" lon="-0.82527">
        <ele>154</ele>
        <time>2016-09-27T08:40:52.644Z</time>
      </trkpt>
      <trkpt lat="47.0582" lon="-0.8251">
        <ele>154</ele>
        <time>2016-09-27T08:41:00.644Z</time>
      </trkpt>
      <trkpt lat="47.05826" lon="-0.82496">
        <ele>154</ele>
        <time>2016-09-27T08:41:07.644Z</time>
      </trkpt>
      <trkpt lat="47.05831" lon="-0.82481">
        <ele>154</ele>
        <time>2016-09-27T08:41:14.644Z</time>
      </trkpt>
      <trkpt lat="47.05833" lon="-0.82465">
        <ele>154</ele>
        <time>2016-09-27T08:41:22.644Z</time>
      </trkpt>
      <trkpt lat="47.05836" lon="-0.82448">
        <ele>154</ele>
        <time>2016-09-27T08:41:29.644Z</time>
      </trkpt>
      <trkpt lat="47.05838" lon="-0.82431">
        <ele>154</ele>
        <time>2016-09-27T08:41:36.644Z</time>
      </trkpt>
      <trkpt lat="47.05843" lon="-0.82416">
        <ele>154</ele>
        <time>2016-09-27T08:41:43.644Z</time>
      </trkpt>
      <trkpt lat="47.05849" lon="-0.82405">
        <ele>154</ele>
        <time>2016-09-27T08:41:49.644Z</time>
      </trkpt>
      <trkpt lat="47.05852" lon="-0.82388">
        <ele>154</ele>
        <time>2016-09-27T08:41:56.644Z</time>
      </trkpt>
      <trkpt lat="47.05857" lon="-0.82373">
        <ele>155</ele>
        <time>2016-09-27T08:42:02.644Z</time>
      </trkpt>
      <trkpt lat="47.05859" lon="-0.82357">
        <ele>155</ele>
        <time>2016-09-27T08:42:09.644Z</time>
      </trkpt>
      <trkpt lat="47.05861" lon="-0.82341">
        <ele>155</ele>
        <time>2016-09-27T08:42:17.644Z</time>
      </trkpt>
      <trkpt lat="47.05865" lon="-0.82325">
        <ele>155</ele>
        <time>2016-09-27T08:42:24.644Z</time>
      </trkpt>
      <trkpt lat="47.0587" lon="-0.8231">
        <ele>155</ele>
        <time>2016-09-27T08:42:32.644Z</time>
      </trkpt>
      <trkpt lat="47.05875" lon="-0.82295">
        <ele>155</ele>
        <time>2016-09-27T08:42:38.644Z</time>
      </trkpt>
      <trkpt lat="47.05877" lon="-0.82279">
        <ele>155</ele>
        <time>2016-09-27T08:42:45.644Z</time>
      </trkpt>
      <trkpt lat="47.05884" lon="-0.82264">
        <ele>155</ele>
        <time>2016-09-27T08:42:52.644Z</time>
      </trkpt>
      <trkpt lat="47.0589" lon="-0.82249">
        <ele>155</ele>
        <time>2016-09-27T08:43:00.644Z</time>
      </trkpt>
      <trkpt lat="47.05893" lon="-0.82235">
        <ele>154</ele>
        <time>2016-09-27T08:43:06.644Z</time>
      </trkpt>
      <trkpt lat="47.05894" lon="-0.82225">
        <ele>154</ele>
        <time>2016-09-27T08:43:11.644Z</time>
      </trkpt>
      <trkpt lat="47.05898" lon="-0.82209">
        <ele>154</ele>
        <time>2016-09-27T08:43:19.644Z</time>
      </trkpt>
      <trkpt lat="47.059" lon="-0.82192">
        <ele>154</ele>
        <time>2016-09-27T08:43:27.644Z</time>
      </trkpt>
      <trkpt lat="47.05905" lon="-0.82177">
        <ele>154</ele>
        <time>2016-09-27T08:43:35.644Z</time>
      </trkpt>
      <trkpt lat="47.05908" lon="-0.8216">
        <ele>154</ele>
        <time>2016-09-27T08:43:43.644Z</time>
      </trkpt>
      <trkpt lat="47.05913" lon="-0.82144">
        <ele>154</ele>
        <time>2016-09-27T08:43:49.644Z</time>
      </trkpt>
      <trkpt lat="47.05915" lon="-0.82128">
        <ele>154</ele>
        <time>2016-09-27T08:43:55.644Z</time>
      </trkpt>
      <trkpt lat="47.05917" lon="-0.82123">
        <ele>154</ele>
        <time>2016-09-27T08:43:58.644Z</time>
      </trkpt>
      <trkpt lat="47.05918" lon="-0.82114">
        <ele>154</ele>
        <time>2016-09-27T08:44:02.644Z</time>
      </trkpt>
      <trkpt lat="47.05918" lon="-0.82108">
        <ele>154</ele>
        <time>2016-09-27T08:44:05.644Z</time>
      </trkpt>
      <trkpt lat="47.05919" lon="-0.82101">
        <ele>154</ele>
        <time>2016-09-27T08:44:08.644Z</time>
      </trkpt>
      <trkpt lat="47.05919" lon="-0.82095">
        <ele>154</ele>
        <time>2016-09-27T08:44:11.644Z</time>
      </trkpt>
      <trkpt lat="47.0592" lon="-0.82087">
        <ele>154</ele>
        <time>2016-09-27T08:44:14.644Z</time>
      </trkpt>
      <trkpt lat="47.05922" lon="-0.82071">
        <ele>154</ele>
        <time>2016-09-27T08:44:22.644Z</time>
      </trkpt>
      <trkpt lat="47.05927" lon="-0.82055">
        <ele>153.56635643706</ele>
        <time>2016-09-27T08:44:30.644Z</time>
      </trkpt>
      <trkpt lat="47.0593" lon="-0.82039">
        <ele>153</ele>
        <time>2016-09-27T08:44:39.644Z</time>
      </trkpt>
      <trkpt lat="47.05936" lon="-0.82026">
        <ele>153</ele>
        <time>2016-09-27T08:44:45.644Z</time>
      </trkpt>
      <trkpt lat="47.05943" lon="-0.82011">
        <ele>152.01134744047</ele>
        <time>2016-09-27T08:44:51.644Z</time>
      </trkpt>
      <trkpt lat="47.05949" lon="-0.81996">
        <ele>152</ele>
        <time>2016-09-27T08:44:57.644Z</time>
      </trkpt>
      <trkpt lat="47.05951" lon="-0.81991">
        <ele>152</ele>
        <time>2016-09-27T08:44:59.644Z</time>
      </trkpt>
      <trkpt lat="47.05954" lon="-0.81974">
        <ele>151</ele>
        <time>2016-09-27T08:45:06.644Z</time>
      </trkpt>
      <trkpt lat="47.0596" lon="-0.81959">
        <ele>150</ele>
        <time>2016-09-27T08:45:14.644Z</time>
      </trkpt>
      <trkpt lat="47.05965" lon="-0.81949">
        <ele>150</ele>
        <time>2016-09-27T08:45:20.644Z</time>
      </trkpt>
      <trkpt lat="47.05973" lon="-0.81939">
        <ele>149</ele>
        <time>2016-09-27T08:45:27.644Z</time>
      </trkpt>
      <trkpt lat="47.05977" lon="-0.81934">
        <ele>149</ele>
        <time>2016-09-27T08:45:31.644Z</time>
      </trkpt>
      <trkpt lat="47.05986" lon="-0.81923">
        <ele>148</ele>
        <time>2016-09-27T08:45:39.644Z</time>
      </trkpt>
      <trkpt lat="47.05995" lon="-0.81909">
        <ele>148</ele>
        <time>2016-09-27T08:45:47.644Z</time>
      </trkpt>
      <trkpt lat="47.06003" lon="-0.81895">
        <ele>148</ele>
        <time>2016-09-27T08:45:55.644Z</time>
      </trkpt>
      <trkpt lat="47.06012" lon="-0.81883">
        <ele>147</ele>
        <time>2016-09-27T08:46:03.644Z</time>
      </trkpt>
      <trkpt lat="47.0602" lon="-0.81872">
        <ele>147</ele>
        <time>2016-09-27T08:46:10.644Z</time>
      </trkpt>
      <trkpt lat="47.06029" lon="-0.8186">
        <ele>147</ele>
        <time>2016-09-27T08:46:19.644Z</time>
      </trkpt>
      <trkpt lat="47.06037" lon="-0.8185">
        <ele>147</ele>
        <time>2016-09-27T08:46:26.644Z</time>
      </trkpt>
      <trkpt lat="47.06045" lon="-0.81835">
        <ele>146</ele>
        <time>2016-09-27T08:46:34.644Z</time>
      </trkpt>
      <trkpt lat="47.06051" lon="-0.81821">
        <ele>146</ele>
        <time>2016-09-27T08:46:40.644Z</time>
      </trkpt>
      <trkpt lat="47.06057" lon="-0.81812">
        <ele>145</ele>
        <time>2016-09-27T08:46:44.644Z</time>
      </trkpt>
      <trkpt lat="47.06066" lon="-0.81801">
        <ele>145</ele>
        <time>2016-09-27T08:46:50.644Z</time>
      </trkpt>
      <trkpt lat="47.0607" lon="-0.81796">
        <ele>145</ele>
        <time>2016-09-27T08:46:53.644Z</time>
      </trkpt>
      <trkpt lat="47.06074" lon="-0.81787">
        <ele>145</ele>
        <time>2016-09-27T08:46:57.644Z</time>
      </trkpt>
      <trkpt lat="47.06078" lon="-0.81784">
        <ele>145</ele>
        <time>2016-09-27T08:46:59.644Z</time>
      </trkpt>
      <trkpt lat="47.0608" lon="-0.8178">
        <ele>145</ele>
        <time>2016-09-27T08:47:01.644Z</time>
      </trkpt>
      <trkpt lat="47.06083" lon="-0.81775">
        <ele>145</ele>
        <time>2016-09-27T08:47:04.644Z</time>
      </trkpt>
      <trkpt lat="47.06086" lon="-0.8177">
        <ele>145</ele>
        <time>2016-09-27T08:47:07.644Z</time>
      </trkpt>
      <trkpt lat="47.06089" lon="-0.81765">
        <ele>144.59298474114</ele>
        <time>2016-09-27T08:47:10.644Z</time>
      </trkpt>
      <trkpt lat="47.06093" lon="-0.8176">
        <ele>144</ele>
        <time>2016-09-27T08:47:13.644Z</time>
      </trkpt>
      <trkpt lat="47.06095" lon="-0.81756">
        <ele>144</ele>
        <time>2016-09-27T08:47:16.644Z</time>
      </trkpt>
      <trkpt lat="47.06097" lon="-0.8175">
        <ele>144</ele>
        <time>2016-09-27T08:47:19.644Z</time>
      </trkpt>
      <trkpt lat="47.061" lon="-0.81745">
        <ele>143</ele>
        <time>2016-09-27T08:47:22.644Z</time>
      </trkpt>
      <trkpt lat="47.06103" lon="-0.81738">
        <ele>143</ele>
        <time>2016-09-27T08:47:25.644Z</time>
      </trkpt>
      <trkpt lat="47.06105" lon="-0.81733">
        <ele>143</ele>
        <time>2016-09-27T08:47:28.644Z</time>
      </trkpt>
      <trkpt lat="47.06106" lon="-0.81728">
        <ele>143</ele>
        <time>2016-09-27T08:47:31.644Z</time>
      </trkpt>
      <trkpt lat="47.06111" lon="-0.81719">
        <ele>143</ele>
        <time>2016-09-27T08:47:35.644Z</time>
      </trkpt>
      <trkpt lat="47.06119" lon="-0.81707">
        <ele>143</ele>
        <time>2016-09-27T08:47:43.644Z</time>
      </trkpt>
      <trkpt lat="47.06127" lon="-0.81694">
        <ele>143</ele>
        <time>2016-09-27T08:47:49.644Z</time>
      </trkpt>
      <trkpt lat="47.06132" lon="-0.81686">
        <ele>142</ele>
        <time>2016-09-27T08:47:53.644Z</time>
      </trkpt>
      <trkpt lat="47.06135" lon="-0.81681">
        <ele>142</ele>
        <time>2016-09-27T08:47:56.644Z</time>
      </trkpt>
      <trkpt lat="47.06138" lon="-0.81675">
        <ele>142</ele>
        <time>2016-09-27T08:47:59.644Z</time>
      </trkpt>
      <trkpt lat="47.06141" lon="-0.81667">
        <ele>143</ele>
        <time>2016-09-27T08:48:03.644Z</time>
      </trkpt>
      <trkpt lat="47.06143" lon="-0.81661">
        <ele>143</ele>
        <time>2016-09-27T08:48:06.644Z</time>
      </trkpt>
      <trkpt lat="47.06146" lon="-0.81655">
        <ele>143</ele>
        <time>2016-09-27T08:48:09.644Z</time>
      </trkpt>
      <trkpt lat="47.06151" lon="-0.81641">
        <ele>143</ele>
        <time>2016-09-27T08:48:16.644Z</time>
      </trkpt>
      <trkpt lat="47.06153" lon="-0.81636">
        <ele>143</ele>
        <time>2016-09-27T08:48:18.644Z</time>
      </trkpt>
      <trkpt lat="47.06156" lon="-0.81628">
        <ele>142</ele>
        <time>2016-09-27T08:48:22.644Z</time>
      </trkpt>
      <trkpt lat="47.06159" lon="-0.81621">
        <ele>142</ele>
        <time>2016-09-27T08:48:25.644Z</time>
      </trkpt>
      <trkpt lat="47.06166" lon="-0.81607">
        <ele>142</ele>
        <time>2016-09-27T08:48:32.644Z</time>
      </trkpt>
      <trkpt lat="47.06172" lon="-0.81594">
        <ele>142</ele>
        <time>2016-09-27T08:48:39.644Z</time>
      </trkpt>
      <trkpt lat="47.06179" lon="-0.81579">
        <ele>142</ele>
        <time>2016-09-27T08:48:46.644Z</time>
      </trkpt>
      <trkpt lat="47.06184" lon="-0.81564">
        <ele>141</ele>
        <time>2016-09-27T08:48:53.644Z</time>
      </trkpt>
      <trkpt lat="47.06187" lon="-0.81558">
        <ele>141</ele>
        <time>2016-09-27T08:48:56.644Z</time>
      </trkpt>
      <trkpt lat="47.06193" lon="-0.81545">
        <ele>140</ele>
        <time>2016-09-27T08:49:02.644Z</time>
      </trkpt>
      <trkpt lat="47.06195" lon="-0.8154">
        <ele>140</ele>
        <time>2016-09-27T08:49:04.644Z</time>
      </trkpt>
      <trkpt lat="47.062" lon="-0.81526">
        <ele>140</ele>
        <time>2016-09-27T08:49:10.644Z</time>
      </trkpt>
      <trkpt lat="47.06203" lon="-0.8152">
        <ele>140</ele>
        <time>2016-09-27T08:49:13.644Z</time>
      </trkpt>
      <trkpt lat="47.06206" lon="-0.81515">
        <ele>140</ele>
        <time>2016-09-27T08:49:16.644Z</time>
      </trkpt>
      <trkpt lat="47.06209" lon="-0.81509">
        <ele>140</ele>
        <time>2016-09-27T08:49:19.644Z</time>
      </trkpt>
      <trkpt lat="47.06212" lon="-0.81504">
        <ele>140</ele>
        <time>2016-09-27T08:49:22.644Z</time>
      </trkpt>
      <trkpt lat="47.06215" lon="-0.815">
        <ele>140</ele>
        <time>2016-09-27T08:49:24.644Z</time>
      </trkpt>
      <trkpt lat="47.06218" lon="-0.81494">
        <ele>140</ele>
        <time>2016-09-27T08:49:27.644Z</time>
      </trkpt>
      <trkpt lat="47.0622" lon="-0.81489">
        <ele>140</ele>
        <time>2016-09-27T08:49:30.644Z</time>
      </trkpt>
      <trkpt lat="47.06223" lon="-0.81484">
        <ele>140</ele>
        <time>2016-09-27T08:49:33.644Z</time>
      </trkpt>
      <trkpt lat="47.06227" lon="-0.81479">
        <ele>140</ele>
        <time>2016-09-27T08:49:36.644Z</time>
      </trkpt>
      <trkpt lat="47.0623" lon="-0.81473">
        <ele>140</ele>
        <time>2016-09-27T08:49:39.644Z</time>
      </trkpt>
      <trkpt lat="47.06233" lon="-0.81466">
        <ele>139</ele>
        <time>2016-09-27T08:49:42.644Z</time>
      </trkpt>
      <trkpt lat="47.06236" lon="-0.8146">
        <ele>139</ele>
        <time>2016-09-27T08:49:45.644Z</time>
      </trkpt>
      <trkpt lat="47.0624" lon="-0.81455">
        <ele>139</ele>
        <time>2016-09-27T08:49:48.644Z</time>
      </trkpt>
      <trkpt lat="47.06242" lon="-0.8145">
        <ele>139</ele>
        <time>2016-09-27T08:49:50.644Z</time>
      </trkpt>
      <trkpt lat="47.06245" lon="-0.81444">
        <ele>139</ele>
        <time>2016-09-27T08:49:53.644Z</time>
      </trkpt>
      <trkpt lat="47.06248" lon="-0.81439">
        <ele>139</ele>
        <time>2016-09-27T08:49:56.644Z</time>
      </trkpt>
      <trkpt lat="47.06251" lon="-0.81434">
        <ele>139</ele>
        <time>2016-09-27T08:49:59.644Z</time>
      </trkpt>
      <trkpt lat="47.06254" lon="-0.8143">
        <ele>139</ele>
        <time>2016-09-27T08:50:01.644Z</time>
      </trkpt>
      <trkpt lat="47.06256" lon="-0.81424">
        <ele>137</ele>
        <time>2016-09-27T08:50:04.644Z</time>
      </trkpt>
      <trkpt lat="47.06259" lon="-0.81416">
        <ele>137</ele>
        <time>2016-09-27T08:50:08.644Z</time>
      </trkpt>
      <trkpt lat="47.06261" lon="-0.8141">
        <ele>137</ele>
        <time>2016-09-27T08:50:11.644Z</time>
      </trkpt>
      <trkpt lat="47.06263" lon="-0.81405">
        <ele>137</ele>
        <time>2016-09-27T08:50:14.644Z</time>
      </trkpt>
      <trkpt lat="47.0627" lon="-0.81391">
        <ele>137</ele>
        <time>2016-09-27T08:50:21.644Z</time>
      </trkpt>
      <trkpt lat="47.06276" lon="-0.81376">
        <ele>138</ele>
        <time>2016-09-27T08:50:28.644Z</time>
      </trkpt>
      <trkpt lat="47.06278" lon="-0.81368">
        <ele>138</ele>
        <time>2016-09-27T08:50:31.644Z</time>
      </trkpt>
      <trkpt lat="47.06281" lon="-0.81361">
        <ele>138</ele>
        <time>2016-09-27T08:50:34.644Z</time>
      </trkpt>
      <trkpt lat="47.06283" lon="-0.81356">
        <ele>138</ele>
        <time>2016-09-27T08:50:37.644Z</time>
      </trkpt>
      <trkpt lat="47.06286" lon="-0.81349">
        <ele>138</ele>
        <time>2016-09-27T08:50:40.644Z</time>
      </trkpt>
      <trkpt lat="47.06287" lon="-0.81343">
        <ele>137.56226679386</ele>
        <time>2016-09-27T08:50:42.644Z</time>
      </trkpt>
      <trkpt lat="47.0629" lon="-0.81337">
        <ele>137</ele>
        <time>2016-09-27T08:50:45.644Z</time>
      </trkpt>
      <trkpt lat="47.06292" lon="-0.81332">
        <ele>137</ele>
        <time>2016-09-27T08:50:47.644Z</time>
      </trkpt>
      <trkpt lat="47.06294" lon="-0.81327">
        <ele>137</ele>
        <time>2016-09-27T08:50:50.644Z</time>
      </trkpt>
      <trkpt lat="47.06296" lon="-0.81322">
        <ele>136</ele>
        <time>2016-09-27T08:50:53.644Z</time>
      </trkpt>
      <trkpt lat="47.06299" lon="-0.81312">
        <ele>136</ele>
        <time>2016-09-27T08:50:57.644Z</time>
      </trkpt>
      <trkpt lat="47.06302" lon="-0.81306">
        <ele>136</ele>
        <time>2016-09-27T08:51:00.644Z</time>
      </trkpt>
      <trkpt lat="47.06305" lon="-0.81298">
        <ele>136</ele>
        <time>2016-09-27T08:51:04.644Z</time>
      </trkpt>
      <trkpt lat="47.06307" lon="-0.81291">
        <ele>136</ele>
        <time>2016-09-27T08:51:07.644Z</time>
      </trkpt>
      <trkpt lat="47.06309" lon="-0.81285">
        <ele>136</ele>
        <time>2016-09-27T08:51:10.644Z</time>
      </trkpt>
      <trkpt lat="47.06311" lon="-0.81279">
        <ele>136</ele>
        <time>2016-09-27T08:51:13.644Z</time>
      </trkpt>
      <trkpt lat="47.06314" lon="-0.81272">
        <ele>136</ele>
        <time>2016-09-27T08:51:17.644Z</time>
      </trkpt>
      <trkpt lat="47.06317" lon="-0.81264">
        <ele>136</ele>
        <time>2016-09-27T08:51:21.644Z</time>
      </trkpt>
      <trkpt lat="47.06319" lon="-0.81256">
        <ele>136</ele>
        <time>2016-09-27T08:51:24.644Z</time>
      </trkpt>
      <trkpt lat="47.06322" lon="-0.8125">
        <ele>136</ele>
        <time>2016-09-27T08:51:27.644Z</time>
      </trkpt>
      <trkpt lat="47.06324" lon="-0.81246">
        <ele>136</ele>
        <time>2016-09-27T08:51:30.644Z</time>
      </trkpt>
      <trkpt lat="47.06327" lon="-0.81241">
        <ele>136</ele>
        <time>2016-09-27T08:51:33.644Z</time>
      </trkpt>
      <trkpt lat="47.0633" lon="-0.81235">
        <ele>136</ele>
        <time>2016-09-27T08:51:35.644Z</time>
      </trkpt>
      <trkpt lat="47.06333" lon="-0.8123">
        <ele>136</ele>
        <time>2016-09-27T08:51:38.644Z</time>
      </trkpt>
      <trkpt lat="47.06338" lon="-0.81226">
        <ele>135</ele>
        <time>2016-09-27T08:51:42.644Z</time>
      </trkpt>
      <trkpt lat="47.0635" lon="-0.8122">
        <ele>135</ele>
        <time>2016-09-27T08:51:50.644Z</time>
      </trkpt>
      <trkpt lat="47.06362" lon="-0.81218">
        <ele>135</ele>
        <time>2016-09-27T08:51:58.644Z</time>
      </trkpt>
      <trkpt lat="47.06369" lon="-0.81218">
        <ele>135</ele>
        <time>2016-09-27T08:52:03.644Z</time>
      </trkpt>
      <trkpt lat="47.06372" lon="-0.81218">
        <ele>135</ele>
        <time>2016-09-27T08:52:05.644Z</time>
      </trkpt>
      <trkpt lat="47.06376" lon="-0.81218">
        <ele>135</ele>
        <time>2016-09-27T08:52:07.644Z</time>
      </trkpt>
      <trkpt lat="47.06381" lon="-0.81217">
        <ele>135</ele>
        <time>2016-09-27T08:52:10.644Z</time>
      </trkpt>
      <trkpt lat="47.06385" lon="-0.81218">
        <ele>135</ele>
        <time>2016-09-27T08:52:13.644Z</time>
      </trkpt>
      <trkpt lat="47.06391" lon="-0.81217">
        <ele>135</ele>
        <time>2016-09-27T08:52:16.644Z</time>
      </trkpt>
      <trkpt lat="47.06395" lon="-0.81217">
        <ele>135</ele>
        <time>2016-09-27T08:52:18.644Z</time>
      </trkpt>
      <trkpt lat="47.06399" lon="-0.81217">
        <ele>135</ele>
        <time>2016-09-27T08:52:20.644Z</time>
      </trkpt>
      <trkpt lat="47.06404" lon="-0.81218">
        <ele>134</ele>
        <time>2016-09-27T08:52:23.644Z</time>
      </trkpt>
      <trkpt lat="47.06408" lon="-0.81217">
        <ele>134</ele>
        <time>2016-09-27T08:52:25.644Z</time>
      </trkpt>
      <trkpt lat="47.06413" lon="-0.81217">
        <ele>134</ele>
        <time>2016-09-27T08:52:27.644Z</time>
      </trkpt>
      <trkpt lat="47.06416" lon="-0.81216">
        <ele>133.53600593912</ele>
        <time>2016-09-27T08:52:30.644Z</time>
      </trkpt>
      <trkpt lat="47.06421" lon="-0.81215">
        <ele>133</ele>
        <time>2016-09-27T08:52:33.644Z</time>
      </trkpt>
      <trkpt lat="47.06426" lon="-0.81216">
        <ele>133</ele>
        <time>2016-09-27T08:52:36.644Z</time>
      </trkpt>
      <trkpt lat="47.0643" lon="-0.81215">
        <ele>133</ele>
        <time>2016-09-27T08:52:39.644Z</time>
      </trkpt>
      <trkpt lat="47.06435" lon="-0.81215">
        <ele>133</ele>
        <time>2016-09-27T08:52:41.644Z</time>
      </trkpt>
      <trkpt lat="47.06438" lon="-0.81216">
        <ele>133</ele>
        <time>2016-09-27T08:52:43.644Z</time>
      </trkpt>
      <trkpt lat="47.06442" lon="-0.81215">
        <ele>133</ele>
        <time>2016-09-27T08:52:45.644Z</time>
      </trkpt>
      <trkpt lat="47.06446" lon="-0.81215">
        <ele>133</ele>
        <time>2016-09-27T08:52:47.644Z</time>
      </trkpt>
      <trkpt lat="47.0645" lon="-0.81215">
        <ele>132.58261450276</ele>
        <time>2016-09-27T08:52:50.644Z</time>
      </trkpt>
      <trkpt lat="47.06455" lon="-0.81216">
        <ele>132</ele>
        <time>2016-09-27T08:52:53.644Z</time>
      </trkpt>
      <trkpt lat="47.0646" lon="-0.81215">
        <ele>132</ele>
        <time>2016-09-27T08:52:57.644Z</time>
      </trkpt>
      <trkpt lat="47.06464" lon="-0.81215">
        <ele>132</ele>
        <time>2016-09-27T08:52:59.644Z</time>
      </trkpt>
      <trkpt lat="47.06469" lon="-0.81215">
        <ele>130</ele>
        <time>2016-09-27T08:53:02.644Z</time>
      </trkpt>
      <trkpt lat="47.06474" lon="-0.81215">
        <ele>130</ele>
        <time>2016-09-27T08:53:05.644Z</time>
      </trkpt>
      <trkpt lat="47.06479" lon="-0.81214">
        <ele>130</ele>
        <time>2016-09-27T08:53:08.644Z</time>
      </trkpt>
      <trkpt lat="47.06484" lon="-0.81214">
        <ele>131</ele>
        <time>2016-09-27T08:53:11.644Z</time>
      </trkpt>
      <trkpt lat="47.06488" lon="-0.81215">
        <ele>131</ele>
        <time>2016-09-27T08:53:13.644Z</time>
      </trkpt>
      <trkpt lat="47.06492" lon="-0.81215">
        <ele>131</ele>
        <time>2016-09-27T08:53:16.644Z</time>
      </trkpt>
      <trkpt lat="47.06496" lon="-0.81215">
        <ele>131</ele>
        <time>2016-09-27T08:53:19.644Z</time>
      </trkpt>
      <trkpt lat="47.06501" lon="-0.81216">
        <ele>131</ele>
        <time>2016-09-27T08:53:23.644Z</time>
      </trkpt>
      <trkpt lat="47.06506" lon="-0.81215">
        <ele>131</ele>
        <time>2016-09-27T08:53:26.644Z</time>
      </trkpt>
      <trkpt lat="47.06509" lon="-0.81215">
        <ele>131</ele>
        <time>2016-09-27T08:53:29.644Z</time>
      </trkpt>
      <trkpt lat="47.06514" lon="-0.81214">
        <ele>130</ele>
        <time>2016-09-27T08:53:31.644Z</time>
      </trkpt>
      <trkpt lat="47.06518" lon="-0.81215">
        <ele>130</ele>
        <time>2016-09-27T08:53:33.644Z</time>
      </trkpt>
      <trkpt lat="47.06522" lon="-0.81216">
        <ele>130</ele>
        <time>2016-09-27T08:53:36.644Z</time>
      </trkpt>
      <trkpt lat="47.06527" lon="-0.81216">
        <ele>130</ele>
        <time>2016-09-27T08:53:39.644Z</time>
      </trkpt>
      <trkpt lat="47.06531" lon="-0.81216">
        <ele>130</ele>
        <time>2016-09-27T08:53:42.644Z</time>
      </trkpt>
      <trkpt lat="47.06536" lon="-0.81216">
        <ele>130</ele>
        <time>2016-09-27T08:53:45.644Z</time>
      </trkpt>
      <trkpt lat="47.0654" lon="-0.81215">
        <ele>130</ele>
        <time>2016-09-27T08:53:47.644Z</time>
      </trkpt>
      <trkpt lat="47.06544" lon="-0.81215">
        <ele>130</ele>
        <time>2016-09-27T08:53:49.644Z</time>
      </trkpt>
      <trkpt lat="47.06549" lon="-0.81215">
        <ele>130</ele>
        <time>2016-09-27T08:53:52.644Z</time>
      </trkpt>
      <trkpt lat="47.06554" lon="-0.81217">
        <ele>130</ele>
        <time>2016-09-27T08:53:55.644Z</time>
      </trkpt>
      <trkpt lat="47.06559" lon="-0.81218">
        <ele>130</ele>
        <time>2016-09-27T08:53:58.644Z</time>
      </trkpt>
      <trkpt lat="47.06564" lon="-0.81217">
        <ele>130</ele>
        <time>2016-09-27T08:54:01.644Z</time>
      </trkpt>
      <trkpt lat="47.06569" lon="-0.81217">
        <ele>130</ele>
        <time>2016-09-27T08:54:04.644Z</time>
      </trkpt>
      <trkpt lat="47.06573" lon="-0.81216">
        <ele>130</ele>
        <time>2016-09-27T08:54:07.644Z</time>
      </trkpt>
      <trkpt lat="47.06577" lon="-0.81215">
        <ele>130</ele>
        <time>2016-09-27T08:54:10.644Z</time>
      </trkpt>
      <trkpt lat="47.06583" lon="-0.81214">
        <ele>130</ele>
        <time>2016-09-27T08:54:14.644Z</time>
      </trkpt>
      <trkpt lat="47.06587" lon="-0.81213">
        <ele>130</ele>
        <time>2016-09-27T08:54:17.644Z</time>
      </trkpt>
      <trkpt lat="47.06591" lon="-0.81213">
        <ele>129.62326605941</ele>
        <time>2016-09-27T08:54:20.644Z</time>
      </trkpt>
      <trkpt lat="47.06596" lon="-0.81214">
        <ele>129</ele>
        <time>2016-09-27T08:54:23.644Z</time>
      </trkpt>
      <trkpt lat="47.06601" lon="-0.81214">
        <ele>129</ele>
        <time>2016-09-27T08:54:26.644Z</time>
      </trkpt>
      <trkpt lat="47.06606" lon="-0.81214">
        <ele>129</ele>
        <time>2016-09-27T08:54:29.644Z</time>
      </trkpt>
      <trkpt lat="47.06612" lon="-0.81214">
        <ele>128</ele>
        <time>2016-09-27T08:54:33.644Z</time>
      </trkpt>
      <trkpt lat="47.06616" lon="-0.81214">
        <ele>128</ele>
        <time>2016-09-27T08:54:36.644Z</time>
      </trkpt>
      <trkpt lat="47.0662" lon="-0.81214">
        <ele>128</ele>
        <time>2016-09-27T08:54:39.644Z</time>
      </trkpt>
      <trkpt lat="47.06624" lon="-0.81214">
        <ele>128</ele>
        <time>2016-09-27T08:54:42.644Z</time>
      </trkpt>
      <trkpt lat="47.06628" lon="-0.81214">
        <ele>128</ele>
        <time>2016-09-27T08:54:45.644Z</time>
      </trkpt>
      <trkpt lat="47.06632" lon="-0.81216">
        <ele>128</ele>
        <time>2016-09-27T08:54:48.644Z</time>
      </trkpt>
      <trkpt lat="47.06636" lon="-0.81216">
        <ele>127</ele>
        <time>2016-09-27T08:54:51.644Z</time>
      </trkpt>
      <trkpt lat="47.06641" lon="-0.81216">
        <ele>127</ele>
        <time>2016-09-27T08:54:54.644Z</time>
      </trkpt>
      <trkpt lat="47.06645" lon="-0.81217">
        <ele>127</ele>
        <time>2016-09-27T08:54:56.644Z</time>
      </trkpt>
      <trkpt lat="47.0665" lon="-0.81217">
        <ele>127</ele>
        <time>2016-09-27T08:54:58.644Z</time>
      </trkpt>
      <trkpt lat="47.06654" lon="-0.81217">
        <ele>127</ele>
        <time>2016-09-27T08:55:00.644Z</time>
      </trkpt>
      <trkpt lat="47.06659" lon="-0.81217">
        <ele>127</ele>
        <time>2016-09-27T08:55:03.644Z</time>
      </trkpt>
      <trkpt lat="47.06663" lon="-0.81218">
        <ele>127</ele>
        <time>2016-09-27T08:55:06.644Z</time>
      </trkpt>
      <trkpt lat="47.06667" lon="-0.81218">
        <ele>127</ele>
        <time>2016-09-27T08:55:11.644Z</time>
      </trkpt>
      <trkpt lat="47.06672" lon="-0.81217">
        <ele>127</ele>
        <time>2016-09-27T08:55:15.644Z</time>
      </trkpt>
      <trkpt lat="47.06676" lon="-0.81218">
        <ele>127</ele>
        <time>2016-09-27T08:55:18.644Z</time>
      </trkpt>
      <trkpt lat="47.06682" lon="-0.81218">
        <ele>127</ele>
        <time>2016-09-27T08:55:20.644Z</time>
      </trkpt>
      <trkpt lat="47.06686" lon="-0.81218">
        <ele>127</ele>
        <time>2016-09-27T08:55:22.644Z</time>
      </trkpt>
      <trkpt lat="47.0669" lon="-0.81218">
        <ele>127</ele>
        <time>2016-09-27T08:55:24.644Z</time>
      </trkpt>
      <trkpt lat="47.06694" lon="-0.81217">
        <ele>127</ele>
        <time>2016-09-27T08:55:26.644Z</time>
      </trkpt>
      <trkpt lat="47.067" lon="-0.81217">
        <ele>127</ele>
        <time>2016-09-27T08:55:30.644Z</time>
      </trkpt>
      <trkpt lat="47.06705" lon="-0.81217">
        <ele>128</ele>
        <time>2016-09-27T08:55:33.644Z</time>
      </trkpt>
      <trkpt lat="47.0671" lon="-0.81216">
        <ele>128</ele>
        <time>2016-09-27T08:55:36.644Z</time>
      </trkpt>
      <trkpt lat="47.06714" lon="-0.81215">
        <ele>128</ele>
        <time>2016-09-27T08:55:39.644Z</time>
      </trkpt>
      <trkpt lat="47.06718" lon="-0.81216">
        <ele>128</ele>
        <time>2016-09-27T08:55:45.644Z</time>
      </trkpt>
      <trkpt lat="47.06724" lon="-0.81218">
        <ele>128</ele>
        <time>2016-09-27T08:55:49.644Z</time>
      </trkpt>
      <trkpt lat="47.06729" lon="-0.81222">
        <ele>127</ele>
        <time>2016-09-27T08:55:53.644Z</time>
      </trkpt>
      <trkpt lat="47.06731" lon="-0.81227">
        <ele>127</ele>
        <time>2016-09-27T08:55:55.644Z</time>
      </trkpt>
      <trkpt lat="47.06731" lon="-0.81234">
        <ele>127</ele>
        <time>2016-09-27T08:56:00.644Z</time>
      </trkpt>
      <trkpt lat="47.06729" lon="-0.81241">
        <ele>126</ele>
        <time>2016-09-27T08:56:04.644Z</time>
      </trkpt>
      <trkpt lat="47.06727" lon="-0.81247">
        <ele>126</ele>
        <time>2016-09-27T08:56:07.644Z</time>
      </trkpt>
      <trkpt lat="47.06725" lon="-0.81252">
        <ele>126.46399406088</ele>
        <time>2016-09-27T08:56:10.644Z</time>
      </trkpt>
      <trkpt lat="47.06723" lon="-0.81258">
        <ele>127</ele>
        <time>2016-09-27T08:56:13.644Z</time>
      </trkpt>
      <trkpt lat="47.06721" lon="-0.81265">
        <ele>127</ele>
        <time>2016-09-27T08:56:16.644Z</time>
      </trkpt>
      <trkpt lat="47.06717" lon="-0.8127">
        <ele>127</ele>
        <time>2016-09-27T08:56:19.644Z</time>
      </trkpt>
      <trkpt lat="47.06715" lon="-0.81275">
        <ele>127</ele>
        <time>2016-09-27T08:56:21.644Z</time>
      </trkpt>
      <trkpt lat="47.06714" lon="-0.81279">
        <ele>127</ele>
        <time>2016-09-27T08:56:23.644Z</time>
      </trkpt>
      <trkpt lat="47.06713" lon="-0.81286">
        <ele>127</ele>
        <time>2016-09-27T08:56:25.644Z</time>
      </trkpt>
      <trkpt lat="47.06713" lon="-0.81293">
        <ele>127</ele>
        <time>2016-09-27T08:56:27.644Z</time>
      </trkpt>
      <trkpt lat="47.06714" lon="-0.81299">
        <ele>127</ele>
        <time>2016-09-27T08:56:29.644Z</time>
      </trkpt>
      <trkpt lat="47.06715" lon="-0.8131">
        <ele>127</ele>
        <time>2016-09-27T08:56:33.644Z</time>
      </trkpt>
      <trkpt lat="47.06713" lon="-0.81317">
        <ele>127</ele>
        <time>2016-09-27T08:56:36.644Z</time>
      </trkpt>
      <trkpt lat="47.06712" lon="-0.81324">
        <ele>127</ele>
        <time>2016-09-27T08:56:39.644Z</time>
      </trkpt>
      <trkpt lat="47.06709" lon="-0.81335">
        <ele>127</ele>
        <time>2016-09-27T08:56:44.644Z</time>
      </trkpt>
      <trkpt lat="47.06707" lon="-0.8134">
        <ele>127</ele>
        <time>2016-09-27T08:56:47.644Z</time>
      </trkpt>
      <trkpt lat="47.06705" lon="-0.81345">
        <ele>127</ele>
        <time>2016-09-27T08:56:49.644Z</time>
      </trkpt>
      <trkpt lat="47.06704" lon="-0.81349">
        <ele>129</ele>
        <time>2016-09-27T08:56:51.644Z</time>
      </trkpt>
    </trkseg>
  </trk>
</gpx>